Time,TemperatureF,DewpointF,PressureIn,WindDirection,WindDirectionDegrees,WindSpeedMPH,WindSpeedGustMPH,Humidity,HourlyPrecipIn,Conditions,Clouds,dailyrainin,SoftwareType,DateUTC
2013-02-27 00:01:00,26.9,24.4,29.64,NNE,24,6.8,13.2,90,0.00,CLR,,0.00,WeatherDisplay:10.37,2013-02-27 06:01:00,
2013-02-27 00:02:00,26.9,24.4,29.63,NE,41,7.6,15.0,90,0.00,CLR,,0.00,WeatherDisplay:10.37,2013-02-27 06:02:00,
2013-02-27 00:06:00,26.9,24.4,29.64,NNE,25,6.8,11.5,90,0.00,CLR,,0.00,WeatherDisplay:10.37,2013-02-27 06:06:00,
2013-02-27 00:07:00,26.9,24.4,29.63,NNE,13,8.4,13.8,90,0.00,CLR,,0.00,WeatherDisplay:10.37,2013-02-27 06:07:00,
2013-02-27 00:11:00,27.0,24.5,29.64,NNE,28,7.0,15.0,90,0.00,CLR,,0.00,WeatherDisplay:10.37,2013-02-27 06:11:00,
2013-02-27 00:12:00,27.0,24.5,29.63,NNE,14,11.4,17.3,90,0.00,CLR,,0.00,WeatherDisplay:10.37,2013-02-27 06:12:00,
2013-02-27 00:16:00,27.0,24.5,29.63,North,10,5.3,6.9,90,0.00,CLR,,0.00,WeatherDisplay:10.37,2013-02-27 06:16:00,
2013-02-27 00:17:00,27.0,24.5,29.63,NNE,23,5.3,8.1,90,0.00,CLR,,0.00,WeatherDisplay:10.37,2013-02-27 06:17:00,
2013-02-27 00:21:00,27.0,24.5,29.63,NNE,30,9.4,11.5,90,0.00,CLR,,0.00,WeatherDisplay:10.37,2013-02-27 06:21:00,
2013-02-27 00:22:00,27.0,24.5,29.63,NE,44,11.8,17.3,90,0.00,CLR,,0.00,WeatherDisplay:10.37,2013-02-27 06:22:00,
2013-02-27 00:23:00,27.0,24.5,29.63,NNE,30,8.4,15.0,90,0.00,CLR,,0.00,WeatherDisplay:10.37,2013-02-27 06:23:00,
2013-02-27 00:26:00,27.0,24.5,29.63,NNE,16,5.2,10.4,90,0.00,CLR,,0.00,WeatherDisplay:10.37,2013-02-27 06:26:00,
2013-02-27 00:27:00,27.0,24.5,29.63,NE,55,8.2,8.8,90,0.00,CLR,,0.00,WeatherDisplay:10.37,2013-02-27 06:27:00,
2013-02-27 00:28:00,27.0,24.5,29.63,North,6,8.0,15.0,90,0.00,CLR,,0.00,WeatherDisplay:10.37,2013-02-27 06:28:00,
2013-02-27 00:31:00,27.0,24.5,29.63,NNE,28,9.5,15.0,90,0.00,CLR,,0.00,WeatherDisplay:10.37,2013-02-27 06:31:00,
2013-02-27 00:32:00,27.0,24.5,29.63,NNE,24,6.8,16.1,90,0.00,CLR,,0.00,WeatherDisplay:10.37,2013-02-27 06:32:00,
2013-02-27 00:33:00,27.0,24.5,29.63,NE,51,8.1,13.8,90,0.00,CLR,,0.00,WeatherDisplay:10.37,2013-02-27 06:33:00,
2013-02-27 00:36:00,26.9,24.4,29.63,NNE,18,7.7,17.3,90,0.00,CLR,,0.00,WeatherDisplay:10.37,2013-02-27 06:36:00,
2013-02-27 00:37:00,27.0,24.5,29.63,North,360,8.4,11.5,90,0.00,CLR,,0.00,WeatherDisplay:10.37,2013-02-27 06:37:00,
2013-02-27 00:38:00,27.0,24.5,29.63,North,1,8.7,11.5,90,0.00,CLR,,0.00,WeatherDisplay:10.37,2013-02-27 06:38:00,
2013-02-27 00:41:00,27.0,24.5,29.63,NNE,28,7.9,10.6,90,0.00,CLR,,0.00,WeatherDisplay:10.37,2013-02-27 06:41:00,
2013-02-27 00:43:00,27.0,24.5,29.63,NE,51,8.9,15.0,90,0.00,CLR,,0.00,WeatherDisplay:10.37,2013-02-27 06:43:00,
2013-02-27 00:46:00,27.0,24.5,29.64,NNE,20,7.8,10.4,90,0.00,CLR,,0.00,WeatherDisplay:10.37,2013-02-27 06:46:00,
2013-02-27 00:48:00,27.0,24.5,29.64,NNE,20,8.8,11.5,90,0.00,CLR,,0.00,WeatherDisplay:10.37,2013-02-27 06:48:00,
2013-02-27 00:49:00,26.9,24.4,29.63,NE,37,6.7,13.8,90,0.00,CLR,,0.00,WeatherDisplay:10.37,2013-02-27 06:49:00,
2013-02-27 00:51:00,27.0,24.5,29.64,NE,48,9.0,10.8,90,0.00,CLR,,0.00,WeatherDisplay:10.37,2013-02-27 06:51:00,
2013-02-27 00:53:00,26.9,24.4,29.64,NE,49,9.6,13.8,90,0.00,CLR,,0.00,WeatherDisplay:10.37,2013-02-27 06:53:00,
2013-02-27 00:54:00,27.0,24.5,29.64,NE,49,9.2,13.8,90,0.00,CLR,,0.00,WeatherDisplay:10.37,2013-02-27 06:54:00,
2013-02-27 00:56:00,27.0,24.5,29.64,NE,55,6.8,9.2,90,0.00,CLR,,0.00,WeatherDisplay:10.37,2013-02-27 06:56:00,
2013-02-27 00:58:00,27.0,24.5,29.63,NE,56,6.6,9.2,90,0.00,CLR,,0.00,WeatherDisplay:10.37,2013-02-27 06:58:00,
2013-02-27 00:59:00,27.0,24.5,29.63,NNE,32,7.1,9.2,90,0.00,CLR,,0.00,WeatherDisplay:10.37,2013-02-27 06:59:00,
2013-02-27 01:01:00,26.9,24.4,29.63,NNE,27,8.2,12.7,90,0.00,CLR,,0.00,WeatherDisplay:10.37,2013-02-27 07:01:00,
2013-02-27 01:04:00,26.9,24.4,29.63,NNE,24,7.4,8.1,90,0.00,CLR,,0.00,WeatherDisplay:10.37,2013-02-27 07:04:00,
2013-02-27 01:05:00,26.9,24.4,29.63,NNE,30,5.9,9.2,90,0.00,CLR,,0.00,WeatherDisplay:10.37,2013-02-27 07:05:00,
2013-02-27 01:06:00,26.9,24.4,29.63,NNE,14,8.0,15.0,90,0.00,CLR,,0.00,WeatherDisplay:10.37,2013-02-27 07:06:00,
2013-02-27 01:09:00,26.9,24.4,29.63,North,8,5.5,5.8,90,0.00,CLR,,0.00,WeatherDisplay:10.37,2013-02-27 07:09:00,
2013-02-27 01:10:00,26.9,24.4,29.63,North,360,9.1,13.8,90,0.00,CLR,,0.00,WeatherDisplay:10.37,2013-02-27 07:10:00,
2013-02-27 01:12:00,26.9,24.4,29.63,NE,35,8.7,12.7,90,0.00,CLR,,0.00,WeatherDisplay:10.37,2013-02-27 07:12:00,
2013-02-27 01:14:00,26.9,24.4,29.63,NE,45,7.8,13.8,90,0.00,CLR,,0.00,WeatherDisplay:10.37,2013-02-27 07:14:00,
2013-02-27 01:15:00,26.9,24.4,29.63,NNE,17,5.6,8.1,90,0.00,CLR,,0.00,WeatherDisplay:10.37,2013-02-27 07:15:00,
2013-02-27 01:17:00,26.9,24.4,29.63,North,8,7.3,13.8,90,0.00,CLR,,0.00,WeatherDisplay:10.37,2013-02-27 07:17:00,
2013-02-27 01:19:00,26.9,24.4,29.63,North,360,6.3,10.4,90,0.00,CLR,,0.00,WeatherDisplay:10.37,2013-02-27 07:19:00,
2013-02-27 01:20:00,26.8,24.3,29.63,NE,42,8.8,12.7,90,0.00,CLR,,0.00,WeatherDisplay:10.37,2013-02-27 07:20:00,
2013-02-27 01:22:00,26.8,24.3,29.63,WNW,292,4.7,13.8,90,0.00,CLR,,0.00,WeatherDisplay:10.37,2013-02-27 07:22:00,
2013-02-27 01:24:00,26.9,24.4,29.63,North,3,7.9,11.5,90,0.00,CLR,,0.00,WeatherDisplay:10.37,2013-02-27 07:24:00,
2013-02-27 01:25:00,26.8,24.3,29.63,NE,37,4.3,9.2,90,0.00,CLR,,0.00,WeatherDisplay:10.37,2013-02-27 07:25:00,
2013-02-27 01:27:00,26.9,24.4,29.63,NE,51,8.8,15.3,90,0.00,CLR,,0.00,WeatherDisplay:10.37,2013-02-27 07:27:00,
2013-02-27 01:29:00,26.9,24.4,29.63,NNE,30,6.9,13.8,90,0.00,CLR,,0.00,WeatherDisplay:10.37,2013-02-27 07:29:00,
2013-02-27 01:30:00,26.8,24.3,29.63,NNE,32,5.6,8.1,90,0.00,CLR,,0.00,WeatherDisplay:10.37,2013-02-27 07:30:00,
2013-02-27 01:31:00,26.8,24.3,29.63,NE,45,6.1,8.1,90,0.00,CLR,,0.00,WeatherDisplay:10.37,2013-02-27 07:31:00,
2013-02-27 01:32:00,26.8,24.3,29.63,NNE,23,7.9,12.9,90,0.00,CLR,,0.00,WeatherDisplay:10.37,2013-02-27 07:32:00,
2013-02-27 01:34:00,26.8,24.3,29.63,NNE,25,12.0,15.0,90,0.00,CLR,,0.00,WeatherDisplay:10.37,2013-02-27 07:34:00,
2013-02-27 01:36:00,26.8,24.3,29.63,NE,34,9.3,15.7,90,0.00,CLR,,0.00,WeatherDisplay:10.37,2013-02-27 07:36:00,
2013-02-27 01:37:00,26.8,24.3,29.63,North,353,10.2,13.8,90,0.00,CLR,,0.00,WeatherDisplay:10.37,2013-02-27 07:37:00,
2013-02-27 01:40:00,26.9,24.4,29.63,North,360,7.7,11.5,90,0.00,CLR,,0.00,WeatherDisplay:10.37,2013-02-27 07:40:00,
2013-02-27 01:41:00,26.8,24.3,29.63,East,89,5.5,9.2,90,0.00,CLR,,0.00,WeatherDisplay:10.37,2013-02-27 07:41:00,
2013-02-27 01:43:00,26.8,24.3,29.63,NE,47,8.9,12.6,90,0.00,CLR,,0.00,WeatherDisplay:10.37,2013-02-27 07:43:00,
2013-02-27 01:45:00,26.9,24.4,29.63,NNE,32,9.9,11.5,90,0.00,CLR,,0.00,WeatherDisplay:10.37,2013-02-27 07:45:00,
2013-02-27 01:46:00,26.8,24.3,29.63,NE,42,6.1,13.8,90,0.00,CLR,,0.00,WeatherDisplay:10.37,2013-02-27 07:46:00,
2013-02-27 01:48:00,26.8,24.3,29.63,NNE,14,5.8,9.2,90,0.00,CLR,,0.00,WeatherDisplay:10.37,2013-02-27 07:48:00,
2013-02-27 01:50:00,26.8,24.3,29.63,North,1,8.6,15.0,90,0.00,CLR,,0.00,WeatherDisplay:10.37,2013-02-27 07:50:00,
2013-02-27 01:51:00,26.9,24.4,29.63,NNE,14,7.2,15.0,90,0.00,CLR,,0.00,WeatherDisplay:10.37,2013-02-27 07:51:00,
2013-02-27 01:53:00,26.9,24.4,29.63,North,0,5.0,11.4,90,0.00,CLR,,0.00,WeatherDisplay:10.37,2013-02-27 07:53:00,
2013-02-27 01:55:00,26.9,24.4,29.63,North,6,7.1,15.0,90,0.00,CLR,,0.00,WeatherDisplay:10.37,2013-02-27 07:55:00,
2013-02-27 01:56:00,26.8,24.3,29.63,NE,55,6.3,15.0,90,0.00,CLR,,0.00,WeatherDisplay:10.37,2013-02-27 07:56:00,
2013-02-27 01:57:00,26.8,24.3,29.63,NE,41,5.9,8.1,90,0.00,CLR,,0.00,WeatherDisplay:10.37,2013-02-27 07:57:00,
2013-02-27 01:58:00,26.8,24.3,29.63,North,4,6.2,10.4,90,0.00,CLR,,0.00,WeatherDisplay:10.37,2013-02-27 07:58:00,
2013-02-27 02:01:00,26.8,24.3,29.63,NNW,340,7.0,15.0,90,0.00,CLR,,0.00,WeatherDisplay:10.37,2013-02-27 08:01:00,
2013-02-27 02:02:00,26.8,24.3,29.63,NW,326,6.1,12.4,90,0.00,CLR,,0.00,WeatherDisplay:10.37,2013-02-27 08:02:00,
2013-02-27 02:03:00,26.8,24.3,29.63,North,360,9.4,13.8,90,0.00,CLR,,0.00,WeatherDisplay:10.37,2013-02-27 08:03:00,
2013-02-27 02:06:00,26.9,24.4,29.63,North,353,6.4,7.2,90,0.00,CLR,,0.00,WeatherDisplay:10.37,2013-02-27 08:06:00,
2013-02-27 02:07:00,26.8,24.3,29.63,North,360,7.0,11.5,90,0.00,CLR,,0.00,WeatherDisplay:10.37,2013-02-27 08:07:00,
2013-02-27 02:08:00,26.8,24.3,29.63,NNE,20,4.7,8.1,90,0.00,CLR,,0.00,WeatherDisplay:10.37,2013-02-27 08:08:00,
2013-02-27 02:11:00,26.8,24.3,29.63,NNW,333,4.6,6.9,90,0.00,CLR,,0.00,WeatherDisplay:10.37,2013-02-27 08:11:00,
2013-02-27 02:12:00,26.7,24.2,29.63,North,8,4.8,9.6,90,0.00,CLR,,0.00,WeatherDisplay:10.37,2013-02-27 08:12:00,
2013-02-27 02:13:00,26.8,24.3,29.63,North,4,4.6,9.2,90,0.00,CLR,,0.00,WeatherDisplay:10.37,2013-02-27 08:13:00,
2013-02-27 02:16:00,26.7,24.2,29.63,North,6,7.8,10.4,90,0.00,CLR,,0.00,WeatherDisplay:10.37,2013-02-27 08:16:00,
2013-02-27 02:17:00,26.7,24.2,29.63,NNE,14,5.6,15.0,90,0.00,CLR,,0.00,WeatherDisplay:10.37,2013-02-27 08:17:00,
2013-02-27 02:18:00,26.8,24.3,29.63,NE,42,5.7,8.1,90,0.00,CLR,,0.00,WeatherDisplay:10.37,2013-02-27 08:18:00,
2013-02-27 02:21:00,26.7,24.2,29.63,North,6,5.5,11.5,90,0.00,CLR,,0.00,WeatherDisplay:10.37,2013-02-27 08:21:00,
2013-02-27 02:22:00,26.7,24.2,29.63,North,350,6.2,10.9,90,0.00,CLR,,0.00,WeatherDisplay:10.37,2013-02-27 08:22:00,
2013-02-27 02:23:00,26.8,24.3,29.63,NNE,13,7.0,12.7,90,0.00,CLR,,0.00,WeatherDisplay:10.37,2013-02-27 08:23:00,
2013-02-27 02:26:00,26.7,24.2,29.63,North,360,8.2,12.7,90,0.00,CLR,,0.00,WeatherDisplay:10.37,2013-02-27 08:26:00,
2013-02-27 02:27:00,26.7,24.2,29.63,NNW,344,7.7,11.5,90,0.00,CLR,,0.00,WeatherDisplay:10.37,2013-02-27 08:27:00,
2013-02-27 02:28:00,26.7,24.2,29.63,North,7,7.4,11.5,90,0.00,CLR,,0.00,WeatherDisplay:10.37,2013-02-27 08:28:00,
2013-02-27 02:29:00,26.7,24.2,29.63,NNE,27,6.0,8.1,90,0.00,CLR,,0.00,WeatherDisplay:10.37,2013-02-27 08:29:00,
2013-02-27 02:31:00,26.7,24.2,29.63,NNE,24,6.7,11.5,90,0.00,CLR,,0.00,WeatherDisplay:10.37,2013-02-27 08:31:00,
2013-02-27 02:33:00,26.7,24.2,29.62,NNE,32,7.9,13.8,90,0.00,CLR,,0.00,WeatherDisplay:10.37,2013-02-27 08:33:00,
2013-02-27 02:34:00,26.7,24.2,29.62,North,357,5.7,11.5,90,0.00,CLR,,0.00,WeatherDisplay:10.37,2013-02-27 08:34:00,
2013-02-27 02:37:00,26.7,24.2,29.62,NE,47,8.6,15.0,90,0.00,CLR,,0.00,WeatherDisplay:10.37,2013-02-27 08:37:00,
2013-02-27 02:38:00,26.7,24.2,29.62,NE,38,7.7,15.0,90,0.00,CLR,,0.00,WeatherDisplay:10.37,2013-02-27 08:38:00,
2013-02-27 02:39:00,26.7,24.2,29.62,NNE,21,6.3,9.2,90,0.00,CLR,,0.00,WeatherDisplay:10.37,2013-02-27 08:39:00,
2013-02-27 02:42:00,26.7,24.2,29.62,NNE,16,7.6,15.0,90,0.00,CLR,,0.00,WeatherDisplay:10.37,2013-02-27 08:42:00,
2013-02-27 02:43:00,26.6,24.1,29.62,NNW,339,9.5,15.0,90,0.00,CLR,,0.00,WeatherDisplay:10.37,2013-02-27 08:43:00,
2013-02-27 02:45:00,26.7,24.2,29.62,NNW,347,5.0,9.2,90,0.00,CLR,,0.00,WeatherDisplay:10.37,2013-02-27 08:45:00,
2013-02-27 02:48:00,26.6,24.1,29.62,NNE,32,5.7,11.5,90,0.00,CLR,,0.00,WeatherDisplay:10.37,2013-02-27 08:48:00,
2013-02-27 02:50:00,26.6,24.1,29.62,North,1,5.6,9.2,90,0.00,CLR,,0.00,WeatherDisplay:10.37,2013-02-27 08:50:00,
2013-02-27 02:53:00,26.6,24.1,29.62,NNW,347,6.8,12.7,90,0.00,CLR,,0.00,WeatherDisplay:10.37,2013-02-27 08:53:00,
2013-02-27 02:55:00,26.6,24.1,29.62,North,360,8.6,12.7,90,0.00,CLR,,0.00,WeatherDisplay:10.37,2013-02-27 08:55:00,
2013-02-27 02:58:00,26.6,24.1,29.62,North,360,6.9,11.5,90,0.00,CLR,,0.00,WeatherDisplay:10.37,2013-02-27 08:58:00,
2013-02-27 03:00:00,26.6,24.1,29.62,NE,47,6.9,10.4,90,0.00,CLR,,0.00,WeatherDisplay:10.37,2013-02-27 09:00:00,
2013-02-27 03:03:00,26.6,24.1,29.62,NE,48,7.9,16.1,90,0.00,CLR,,0.00,WeatherDisplay:10.37,2013-02-27 09:03:00,
2013-02-27 03:04:00,26.6,24.1,29.62,NNE,18,7.3,16.1,90,0.00,CLR,,0.00,WeatherDisplay:10.37,2013-02-27 09:04:00,
2013-02-27 03:05:00,26.6,24.1,29.62,North,3,5.2,10.4,90,0.00,CLR,,0.00,WeatherDisplay:10.37,2013-02-27 09:05:00,
2013-02-27 03:08:00,26.6,24.1,29.62,SE,124,7.3,9.2,90,0.00,CLR,,0.00,WeatherDisplay:10.37,2013-02-27 09:08:00,
2013-02-27 03:09:00,26.6,24.1,29.62,NNE,30,7.7,11.1,90,0.00,CLR,,0.00,WeatherDisplay:10.37,2013-02-27 09:09:00,
2013-02-27 03:10:00,26.6,24.1,29.62,NNE,17,7.9,15.0,90,0.00,CLR,,0.00,WeatherDisplay:10.37,2013-02-27 09:10:00,
2013-02-27 03:13:00,26.6,24.1,29.62,North,360,6.9,9.2,90,0.00,CLR,,0.00,WeatherDisplay:10.37,2013-02-27 09:13:00,
2013-02-27 03:14:00,26.6,24.1,29.62,NNW,329,7.0,9.2,90,0.00,CLR,,0.00,WeatherDisplay:10.37,2013-02-27 09:14:00,
2013-02-27 03:15:00,26.5,24.0,29.62,NE,48,8.6,11.5,90,0.00,CLR,,0.00,WeatherDisplay:10.37,2013-02-27 09:15:00,
2013-02-27 03:19:00,26.6,24.1,29.62,North,360,7.4,11.5,90,0.00,CLR,,0.00,WeatherDisplay:10.37,2013-02-27 09:19:00,
2013-02-27 03:21:00,26.6,24.1,29.62,NE,47,6.6,17.3,90,0.00,CLR,,0.00,WeatherDisplay:10.37,2013-02-27 09:21:00,
2013-02-27 03:24:00,26.6,24.1,29.62,NNW,330,6.5,12.7,90,0.00,CLR,,0.00,WeatherDisplay:10.37,2013-02-27 09:24:00,
2013-02-27 03:26:00,26.5,24.0,29.62,NNE,13,6.4,11.5,90,0.00,CLR,,0.00,WeatherDisplay:10.37,2013-02-27 09:26:00,
2013-02-27 03:29:00,26.5,24.0,29.62,North,11,5.0,8.5,90,0.00,CLR,,0.00,WeatherDisplay:10.37,2013-02-27 09:29:00,
2013-02-27 03:31:00,26.6,24.1,29.62,NNE,20,6.6,12.7,90,0.00,CLR,,0.00,WeatherDisplay:10.37,2013-02-27 09:31:00,
2013-02-27 03:34:00,26.6,24.1,29.62,North,10,7.7,10.4,90,0.00,CLR,,0.00,WeatherDisplay:10.37,2013-02-27 09:34:00,
2013-02-27 03:36:00,26.5,24.0,29.62,North,360,9.0,13.8,90,0.00,CLR,,0.00,WeatherDisplay:10.37,2013-02-27 09:36:00,
2013-02-27 03:39:00,26.5,24.0,29.62,North,7,7.5,10.9,90,0.00,CLR,,0.00,WeatherDisplay:10.37,2013-02-27 09:39:00,
2013-02-27 03:40:00,26.5,24.0,29.62,North,354,7.9,12.0,90,0.00,CLR,,0.00,WeatherDisplay:10.37,2013-02-27 09:40:00,
2013-02-27 03:41:00,26.5,24.0,29.62,North,359,9.1,12.7,90,0.00,CLR,,0.00,WeatherDisplay:10.37,2013-02-27 09:41:00,
2013-02-27 03:44:00,26.5,24.0,29.62,NNE,20,6.2,12.7,90,0.00,CLR,,0.00,WeatherDisplay:10.37,2013-02-27 09:44:00,
2013-02-27 03:45:00,26.6,24.1,29.62,NNE,17,6.1,12.7,90,0.00,CLR,,0.00,WeatherDisplay:10.37,2013-02-27 09:45:00,
2013-02-27 03:46:00,26.5,24.0,29.62,NW,305,8.3,12.7,90,0.00,CLR,,0.00,WeatherDisplay:10.37,2013-02-27 09:46:00,
2013-02-27 03:49:00,26.5,24.0,29.62,NE,37,6.3,11.9,90,0.00,CLR,,0.00,WeatherDisplay:10.37,2013-02-27 09:49:00,
2013-02-27 03:50:00,26.5,24.0,29.62,NNE,20,6.6,11.5,90,0.00,CLR,,0.00,WeatherDisplay:10.37,2013-02-27 09:50:00,
2013-02-27 03:51:00,26.5,24.0,29.62,NNE,31,7.2,11.5,90,0.00,CLR,,0.00,WeatherDisplay:10.37,2013-02-27 09:51:00,
2013-02-27 03:55:00,26.5,23.7,29.62,NNE,25,9.3,15.0,89,0.00,CLR,,0.00,WeatherDisplay:10.37,2013-02-27 09:55:00,
2013-02-27 03:57:00,26.5,23.7,29.62,North,356,7.2,12.2,89,0.00,CLR,,0.00,WeatherDisplay:10.37,2013-02-27 09:57:00,
2013-02-27 04:00:00,26.5,23.7,29.62,NNE,27,6.6,11.5,89,0.00,CLR,,0.00,WeatherDisplay:10.37,2013-02-27 10:00:00,
2013-02-27 04:02:00,26.5,23.7,29.62,NNE,16,5.2,9.2,89,0.00,CLR,,0.00,WeatherDisplay:10.37,2013-02-27 10:02:00,
2013-02-27 04:05:00,26.5,23.7,29.62,NNE,30,9.0,18.4,89,0.00,CLR,,0.00,WeatherDisplay:10.37,2013-02-27 10:05:00,
2013-02-27 04:07:00,26.5,23.7,29.62,NNE,21,8.6,11.5,89,0.00,CLR,,0.00,WeatherDisplay:10.37,2013-02-27 10:07:00,
2013-02-27 04:10:00,26.4,23.9,29.62,North,360,8.2,11.5,90,0.00,CLR,,0.00,WeatherDisplay:10.37,2013-02-27 10:10:00,
2013-02-27 04:11:00,26.4,23.9,29.62,North,7,8.8,11.8,90,0.00,CLR,,0.00,WeatherDisplay:10.37,2013-02-27 10:11:00,
2013-02-27 04:12:00,26.5,23.7,29.62,North,1,9.2,16.1,89,0.00,CLR,,0.00,WeatherDisplay:10.37,2013-02-27 10:12:00,
2013-02-27 04:15:00,26.4,23.6,29.62,North,3,6.1,11.5,89,0.00,CLR,,0.00,WeatherDisplay:10.37,2013-02-27 10:15:00,
2013-02-27 04:16:00,26.5,23.7,29.61,NNW,329,5.0,9.2,89,0.00,CLR,,0.00,WeatherDisplay:10.37,2013-02-27 10:16:00,
2013-02-27 04:17:00,26.4,23.6,29.62,North,3,6.3,11.5,89,0.00,CLR,,0.00,WeatherDisplay:10.37,2013-02-27 10:17:00,
2013-02-27 04:20:00,26.4,23.6,29.62,NE,34,6.5,13.8,89,0.00,CLR,,0.00,WeatherDisplay:10.37,2013-02-27 10:20:00,
2013-02-27 04:21:00,26.4,23.6,29.62,North,11,7.0,11.5,89,0.00,CLR,,0.00,WeatherDisplay:10.37,2013-02-27 10:21:00,
2013-02-27 04:22:00,26.4,23.6,29.62,North,360,8.2,16.7,89,0.00,CLR,,0.00,WeatherDisplay:10.37,2013-02-27 10:22:00,
2013-02-27 04:25:00,26.5,23.7,29.62,ENE,64,8.1,10.4,89,0.00,CLR,,0.00,WeatherDisplay:10.37,2013-02-27 10:25:00,
2013-02-27 04:27:00,26.4,23.6,29.62,North,3,7.5,13.8,89,0.00,CLR,,0.00,WeatherDisplay:10.37,2013-02-27 10:27:00,
2013-02-27 04:30:00,26.4,23.6,29.62,North,350,10.2,16.1,89,0.00,CLR,,0.00,WeatherDisplay:10.37,2013-02-27 10:30:00,
2013-02-27 04:32:00,26.4,23.6,29.62,NNE,18,6.4,13.8,89,0.00,CLR,,0.00,WeatherDisplay:10.37,2013-02-27 10:32:00,
2013-02-27 04:35:00,26.4,23.6,29.62,NNE,16,3.8,8.1,89,0.00,CLR,,0.00,WeatherDisplay:10.37,2013-02-27 10:35:00,
2013-02-27 04:37:00,26.3,23.5,29.62,North,8,6.4,10.4,89,0.00,CLR,,0.00,WeatherDisplay:10.37,2013-02-27 10:37:00,
2013-02-27 04:38:00,26.4,23.6,29.62,North,10,6.8,10.4,89,0.00,CLR,,0.00,WeatherDisplay:10.37,2013-02-27 10:38:00,
2013-02-27 04:40:00,26.3,23.5,29.62,NE,52,4.9,8.1,89,0.00,CLR,,0.00,WeatherDisplay:10.37,2013-02-27 10:40:00,
2013-02-27 04:42:00,26.3,23.5,29.62,North,354,6.6,9.8,89,0.00,CLR,,0.00,WeatherDisplay:10.37,2013-02-27 10:42:00,
2013-02-27 04:43:00,26.3,23.5,29.62,NE,41,7.5,9.2,89,0.00,CLR,,0.00,WeatherDisplay:10.37,2013-02-27 10:43:00,
2013-02-27 04:45:00,26.4,23.6,29.62,North,359,5.3,10.4,89,0.00,CLR,,0.00,WeatherDisplay:10.37,2013-02-27 10:45:00,
2013-02-27 04:48:00,26.4,23.6,29.62,North,3,7.1,9.6,89,0.00,CLR,,0.00,WeatherDisplay:10.37,2013-02-27 10:48:00,
2013-02-27 04:50:00,26.3,23.5,29.62,NNE,31,8.2,13.8,89,0.00,CLR,,0.00,WeatherDisplay:10.37,2013-02-27 10:50:00,
2013-02-27 04:53:00,26.4,23.6,29.62,NNE,18,6.5,9.2,89,0.00,CLR,,0.00,WeatherDisplay:10.37,2013-02-27 10:53:00,
2013-02-27 04:54:00,26.3,23.5,29.62,North,10,7.0,9.2,89,0.00,CLR,,0.00,WeatherDisplay:10.37,2013-02-27 10:54:00,
2013-02-27 04:55:00,26.3,23.5,29.62,North,0,5.6,9.9,89,0.00,CLR,,0.00,WeatherDisplay:10.37,2013-02-27 10:55:00,
2013-02-27 04:58:00,26.3,23.5,29.62,North,10,6.9,13.8,89,0.00,CLR,,0.00,WeatherDisplay:10.37,2013-02-27 10:58:00,
2013-02-27 04:59:00,26.3,23.5,29.62,North,11,5.1,9.4,89,0.00,CLR,,0.00,WeatherDisplay:10.37,2013-02-27 10:59:00,
2013-02-27 05:03:00,26.2,23.4,29.62,NE,55,8.2,12.4,89,0.00,CLR,,0.00,WeatherDisplay:10.37,2013-02-27 11:03:00,
2013-02-27 05:04:00,26.3,23.5,29.62,NNE,23,6.0,10.4,89,0.00,CLR,,0.00,WeatherDisplay:10.37,2013-02-27 11:04:00,
2013-02-27 05:08:00,26.3,23.5,29.62,NNE,23,7.0,8.1,89,0.00,CLR,,0.00,WeatherDisplay:10.37,2013-02-27 11:08:00,
2013-02-27 05:09:00,26.3,23.5,29.62,North,4,6.4,9.2,89,0.00,CLR,,0.00,WeatherDisplay:10.37,2013-02-27 11:09:00,
2013-02-27 05:13:00,26.3,23.8,29.62,NNE,31,8.9,13.8,90,0.00,CLR,,0.00,WeatherDisplay:10.37,2013-02-27 11:13:00,
2013-02-27 05:14:00,26.3,23.8,29.62,NNE,24,8.4,13.8,90,0.00,CLR,,0.00,WeatherDisplay:10.37,2013-02-27 11:14:00,
2013-02-27 05:15:00,26.3,23.8,29.62,NNW,340,5.7,10.4,90,0.00,CLR,,0.00,WeatherDisplay:10.37,2013-02-27 11:15:00,
2013-02-27 05:19:00,26.3,23.8,29.62,North,357,6.4,11.5,90,0.00,CLR,,0.00,WeatherDisplay:10.37,2013-02-27 11:19:00,
2013-02-27 05:20:00,26.3,23.8,29.62,WNW,292,7.2,11.5,90,0.00,CLR,,0.00,WeatherDisplay:10.37,2013-02-27 11:20:00,
2013-02-27 05:24:00,26.3,23.5,29.61,NNE,28,7.1,12.1,89,0.00,CLR,,0.00,WeatherDisplay:10.37,2013-02-27 11:24:00,
2013-02-27 05:25:00,26.2,23.7,29.61,North,353,7.4,11.5,90,0.00,CLR,,0.00,WeatherDisplay:10.37,2013-02-27 11:25:00,
2013-02-27 05:29:00,26.3,23.8,29.62,NW,315,7.2,11.5,90,0.00,CLR,,0.00,WeatherDisplay:10.37,2013-02-27 11:29:00,
2013-02-27 05:30:00,26.3,23.8,29.61,North,353,8.3,11.5,90,0.00,CLR,,0.00,WeatherDisplay:10.37,2013-02-27 11:30:00,
2013-02-27 05:34:00,26.3,23.8,29.62,NNE,24,7.5,12.1,90,0.00,CLR,,0.00,WeatherDisplay:10.37,2013-02-27 11:34:00,
2013-02-27 05:35:00,26.3,23.8,29.62,NNE,32,8.5,13.8,90,0.00,CLR,,0.00,WeatherDisplay:10.37,2013-02-27 11:35:00,
2013-02-27 05:36:00,26.2,23.7,29.61,NE,37,4.4,11.5,90,0.00,CLR,,0.00,WeatherDisplay:10.37,2013-02-27 11:36:00,
2013-02-27 05:39:00,26.3,23.8,29.62,NNW,346,6.6,11.5,90,0.00,CLR,,0.00,WeatherDisplay:10.37,2013-02-27 11:39:00,
2013-02-27 05:40:00,26.3,23.8,29.62,North,11,7.4,10.8,90,0.00,CLR,,0.00,WeatherDisplay:10.37,2013-02-27 11:40:00,
2013-02-27 05:41:00,26.3,23.8,29.61,North,3,7.9,12.7,90,0.00,CLR,,0.00,WeatherDisplay:10.37,2013-02-27 11:41:00,
2013-02-27 05:44:00,26.3,23.8,29.61,North,11,8.3,9.2,90,0.00,CLR,,0.00,WeatherDisplay:10.37,2013-02-27 11:44:00,
2013-02-27 05:45:00,26.3,23.8,29.61,NNE,17,5.8,11.5,90,0.00,CLR,,0.00,WeatherDisplay:10.37,2013-02-27 11:45:00,
2013-02-27 05:46:00,26.2,23.7,29.61,NE,34,7.2,11.5,90,0.00,CLR,,0.00,WeatherDisplay:10.37,2013-02-27 11:46:00,
2013-02-27 05:47:00,26.2,23.7,29.61,North,4,8.5,12.2,90,0.00,CLR,,0.00,WeatherDisplay:10.37,2013-02-27 11:47:00,
2013-02-27 05:49:00,26.2,23.7,29.62,NNW,335,8.2,13.8,90,0.00,CLR,,0.00,WeatherDisplay:10.37,2013-02-27 11:49:00,
2013-02-27 05:50:00,26.3,23.8,29.62,NNE,13,7.7,13.8,90,0.00,CLR,,0.00,WeatherDisplay:10.37,2013-02-27 11:50:00,
2013-02-27 05:51:00,26.3,23.8,29.62,NNE,20,6.2,9.2,90,0.00,CLR,,0.00,WeatherDisplay:10.37,2013-02-27 11:51:00,
2013-02-27 05:52:00,26.2,23.7,29.62,North,352,4.9,9.2,90,0.00,CLR,,0.00,WeatherDisplay:10.37,2013-02-27 11:52:00,
2013-02-27 05:55:00,26.3,23.8,29.62,North,357,9.1,16.1,90,0.00,CLR,,0.00,WeatherDisplay:10.37,2013-02-27 11:55:00,
2013-02-27 05:56:00,26.3,23.8,29.62,North,360,7.4,13.8,90,0.00,CLR,,0.00,WeatherDisplay:10.37,2013-02-27 11:56:00,
2013-02-27 05:57:00,26.2,23.7,29.62,NNW,337,6.6,10.5,90,0.00,CLR,,0.00,WeatherDisplay:10.37,2013-02-27 11:57:00,
2013-02-27 06:00:00,26.2,23.7,29.62,NE,51,6.6,13.8,90,0.00,CLR,,0.00,WeatherDisplay:10.37,2013-02-27 12:00:00,
2013-02-27 06:01:00,26.2,23.7,29.62,North,360,4.0,6.9,90,0.00,CLR,,0.00,WeatherDisplay:10.37,2013-02-27 12:01:00,
2013-02-27 06:02:00,26.3,23.8,29.62,North,349,5.0,7.4,90,0.00,CLR,,0.00,WeatherDisplay:10.37,2013-02-27 12:02:00,
2013-02-27 06:05:00,26.3,23.8,29.62,NNW,332,6.4,10.4,90,0.00,CLR,,0.00,WeatherDisplay:10.37,2013-02-27 12:05:00,
2013-02-27 06:06:00,26.2,23.7,29.62,NE,49,4.7,9.2,90,0.00,CLR,,0.00,WeatherDisplay:10.37,2013-02-27 12:06:00,
2013-02-27 06:07:00,26.3,23.8,29.62,NE,38,5.2,9.6,90,0.00,CLR,,0.00,WeatherDisplay:10.37,2013-02-27 12:07:00,
2013-02-27 06:10:00,26.3,23.8,29.62,NNW,333,7.2,9.1,90,0.00,CLR,,0.00,WeatherDisplay:10.37,2013-02-27 12:10:00,
2013-02-27 06:11:00,26.2,23.7,29.62,North,359,7.6,9.2,90,0.00,CLR,,0.00,WeatherDisplay:10.37,2013-02-27 12:11:00,
2013-02-27 06:12:00,26.2,23.7,29.62,North,4,5.1,9.2,90,0.00,CLR,,0.00,WeatherDisplay:10.37,2013-02-27 12:12:00,
2013-02-27 06:15:00,26.3,23.8,29.62,NW,306,6.7,10.4,90,0.00,CLR,,0.00,WeatherDisplay:10.37,2013-02-27 12:15:00,
2013-02-27 06:16:00,26.3,23.8,29.62,North,11,5.5,10.4,90,0.00,CLR,,0.00,WeatherDisplay:10.37,2013-02-27 12:16:00,
2013-02-27 06:17:00,26.4,23.9,29.62,NE,38,7.9,11.5,90,0.00,CLR,,0.00,WeatherDisplay:10.37,2013-02-27 12:17:00,
2013-02-27 06:18:00,26.4,23.9,29.62,NNW,344,7.3,11.5,90,0.00,CLR,,0.00,WeatherDisplay:10.37,2013-02-27 12:18:00,
2013-02-27 06:20:00,26.3,23.8,29.62,NNE,23,5.0,6.9,90,0.00,CLR,,0.00,WeatherDisplay:10.37,2013-02-27 12:20:00,
2013-02-27 06:21:00,26.4,23.9,29.62,NNE,25,7.3,10.6,90,0.00,CLR,,0.00,WeatherDisplay:10.37,2013-02-27 12:21:00,
2013-02-27 06:22:00,26.3,23.8,29.62,North,360,6.1,13.8,90,0.00,CLR,,0.00,WeatherDisplay:10.37,2013-02-27 12:22:00,
2013-02-27 06:23:00,26.3,23.8,29.62,North,349,4.9,8.1,90,0.00,CLR,,0.00,WeatherDisplay:10.37,2013-02-27 12:23:00,
2013-02-27 06:26:00,26.3,23.8,29.62,NNE,17,7.5,11.5,90,0.00,CLR,,0.00,WeatherDisplay:10.37,2013-02-27 12:26:00,
2013-02-27 06:28:00,26.3,23.8,29.62,North,357,8.6,13.8,90,0.00,CLR,,0.00,WeatherDisplay:10.37,2013-02-27 12:28:00,
2013-02-27 06:31:00,26.4,23.9,29.62,North,0,4.8,8.1,90,0.00,CLR,,0.00,WeatherDisplay:10.37,2013-02-27 12:31:00,
2013-02-27 06:32:00,26.3,23.8,29.62,North,356,7.8,12.7,90,0.00,CLR,,0.00,WeatherDisplay:10.37,2013-02-27 12:32:00,
2013-02-27 06:33:00,26.4,23.9,29.62,North,360,7.1,10.4,90,0.00,CLR,,0.00,WeatherDisplay:10.37,2013-02-27 12:33:00,
2013-02-27 06:34:00,26.4,23.9,29.62,North,8,6.0,10.4,90,0.00,CLR,,0.00,WeatherDisplay:10.37,2013-02-27 12:34:00,
2013-02-27 06:36:00,26.3,23.8,29.62,NNE,20,7.9,16.1,90,0.00,CLR,,0.00,WeatherDisplay:10.37,2013-02-27 12:36:00,
2013-02-27 06:37:00,26.3,23.8,29.62,NNE,18,9.4,16.1,90,0.00,CLR,,0.00,WeatherDisplay:10.37,2013-02-27 12:37:00,
2013-02-27 06:39:00,26.3,23.8,29.62,North,359,6.5,13.8,90,0.00,CLR,,0.00,WeatherDisplay:10.37,2013-02-27 12:39:00,
2013-02-27 06:41:00,26.4,23.9,29.62,NNE,20,8.7,15.0,90,0.00,CLR,,0.00,WeatherDisplay:10.37,2013-02-27 12:41:00,
2013-02-27 06:42:00,26.4,23.9,29.62,North,8,8.2,15.0,90,0.00,CLR,,0.00,WeatherDisplay:10.37,2013-02-27 12:42:00,
2013-02-27 06:44:00,26.4,23.9,29.62,NNW,339,9.0,12.7,90,0.00,CLR,,0.00,WeatherDisplay:10.37,2013-02-27 12:44:00,
2013-02-27 06:47:00,26.4,23.9,29.62,North,3,6.7,13.9,90,0.00,CLR,,0.00,WeatherDisplay:10.37,2013-02-27 12:47:00,
2013-02-27 06:49:00,26.4,23.9,29.62,NNE,27,7.4,14.6,90,0.00,CLR,,0.00,WeatherDisplay:10.37,2013-02-27 12:49:00,
2013-02-27 06:52:00,26.5,24.0,29.62,NNE,17,9.0,14.5,90,0.00,CLR,,0.00,WeatherDisplay:10.37,2013-02-27 12:52:00,
2013-02-27 06:54:00,26.5,24.0,29.63,North,6,7.5,11.5,90,0.00,CLR,,0.00,WeatherDisplay:10.37,2013-02-27 12:54:00,
2013-02-27 06:57:00,26.6,24.1,29.63,NE,41,8.9,15.0,90,0.00,CLR,,0.00,WeatherDisplay:10.37,2013-02-27 12:57:00,
2013-02-27 06:59:00,26.6,24.1,29.63,NE,41,7.8,11.5,90,0.00,CLR,,0.00,WeatherDisplay:10.37,2013-02-27 12:59:00,
2013-02-27 07:02:00,26.6,24.1,29.63,North,360,7.9,15.0,90,0.00,CLR,,0.00,WeatherDisplay:10.37,2013-02-27 13:02:00,
2013-02-27 07:03:00,26.6,24.1,29.63,ENE,58,7.7,15.0,90,0.00,CLR,,0.00,WeatherDisplay:10.37,2013-02-27 13:03:00,
2013-02-27 07:04:00,26.6,24.1,29.63,NE,40,5.0,8.1,90,0.00,CLR,,0.00,WeatherDisplay:10.37,2013-02-27 13:04:00,
2013-02-27 07:05:00,26.7,24.2,29.63,NNW,336,4.5,8.1,90,0.00,CLR,,0.00,WeatherDisplay:10.37,2013-02-27 13:05:00,
2013-02-27 07:07:00,26.7,24.2,29.63,NNE,24,7.0,9.2,90,0.00,CLR,,0.00,WeatherDisplay:10.37,2013-02-27 13:07:00,
2013-02-27 07:08:00,26.7,24.2,29.63,NW,326,6.3,9.2,90,0.00,CLR,,0.00,WeatherDisplay:10.37,2013-02-27 13:08:00,
2013-02-27 07:10:00,26.7,24.2,29.63,NNW,343,7.7,9.2,90,0.00,CLR,,0.00,WeatherDisplay:10.37,2013-02-27 13:10:00,
2013-02-27 07:12:00,26.7,24.2,29.63,NNE,23,8.3,12.7,90,0.00,CLR,,0.00,WeatherDisplay:10.37,2013-02-27 13:12:00,
2013-02-27 07:13:00,26.7,24.2,29.63,NNE,28,4.9,8.1,90,0.00,CLR,,0.00,WeatherDisplay:10.37,2013-02-27 13:13:00,
2013-02-27 07:15:00,26.8,24.3,29.63,NE,37,6.2,7.4,90,0.00,CLR,,0.00,WeatherDisplay:10.37,2013-02-27 13:15:00,
2013-02-27 07:17:00,26.8,24.3,29.63,NNE,24,6.7,12.7,90,0.00,CLR,,0.00,WeatherDisplay:10.37,2013-02-27 13:17:00,
2013-02-27 07:18:00,26.8,24.3,29.63,North,360,5.5,8.1,90,0.00,CLR,,0.00,WeatherDisplay:10.37,2013-02-27 13:18:00,
2013-02-27 07:20:00,26.7,24.2,29.63,ENE,68,6.5,10.4,90,0.00,CLR,,0.00,WeatherDisplay:10.37,2013-02-27 13:20:00,
2013-02-27 07:23:00,26.8,24.3,29.63,NNE,17,9.0,12.2,90,0.00,CLR,,0.00,WeatherDisplay:10.37,2013-02-27 13:23:00,
2013-02-27 07:25:00,26.8,24.3,29.63,NNE,28,8.6,13.8,90,0.00,CLR,,0.00,WeatherDisplay:10.37,2013-02-27 13:25:00,
2013-02-27 07:28:00,26.9,24.4,29.63,NNW,342,4.5,12.7,90,0.00,CLR,,0.00,WeatherDisplay:10.37,2013-02-27 13:28:00,
2013-02-27 07:29:00,26.9,24.4,29.63,NNE,18,5.3,9.2,90,0.00,CLR,,0.00,WeatherDisplay:10.37,2013-02-27 13:29:00,
2013-02-27 07:30:00,26.9,24.4,29.63,North,4,5.3,8.1,90,0.00,CLR,,0.00,WeatherDisplay:10.37,2013-02-27 13:30:00,
2013-02-27 07:31:00,26.9,24.4,29.63,West,278,5.2,9.2,90,0.00,CLR,,0.00,WeatherDisplay:10.37,2013-02-27 13:31:00,
2013-02-27 07:33:00,26.9,24.4,29.63,NE,41,6.5,9.2,90,0.00,CLR,,0.00,WeatherDisplay:10.37,2013-02-27 13:33:00,
2013-02-27 07:34:00,26.9,24.4,29.63,NNE,24,7.6,13.8,90,0.00,CLR,,0.00,WeatherDisplay:10.37,2013-02-27 13:34:00,
2013-02-27 07:35:00,26.9,24.4,29.63,North,360,7.6,13.8,90,0.00,CLR,,0.00,WeatherDisplay:10.37,2013-02-27 13:35:00,
2013-02-27 07:36:00,26.9,24.4,29.64,NE,51,7.9,11.5,90,0.00,CLR,,0.00,WeatherDisplay:10.37,2013-02-27 13:36:00,
2013-02-27 07:38:00,27.0,24.5,29.64,NE,34,9.0,12.7,90,0.00,CLR,,0.00,WeatherDisplay:10.37,2013-02-27 13:38:00,
2013-02-27 07:39:00,27.0,24.5,29.64,North,8,8.9,12.7,90,0.00,CLR,,0.00,WeatherDisplay:10.37,2013-02-27 13:39:00,
2013-02-27 07:40:00,27.0,24.5,29.64,North,11,7.3,11.5,90,0.00,CLR,,0.00,WeatherDisplay:10.37,2013-02-27 13:40:00,
2013-02-27 07:41:00,27.0,24.5,29.64,East,83,5.0,6.9,90,0.00,CLR,,0.00,WeatherDisplay:10.37,2013-02-27 13:41:00,
2013-02-27 07:43:00,27.1,24.6,29.64,NW,320,5.8,10.4,90,0.00,CLR,,0.00,WeatherDisplay:10.37,2013-02-27 13:43:00,
2013-02-27 07:44:00,27.1,24.6,29.64,NE,42,5.4,10.4,90,0.00,CLR,,0.00,WeatherDisplay:10.37,2013-02-27 13:44:00,
2013-02-27 07:45:00,27.1,24.6,29.64,NE,41,6.7,9.2,90,0.00,CLR,,0.00,WeatherDisplay:10.37,2013-02-27 13:45:00,
2013-02-27 07:47:00,27.1,24.6,29.64,North,6,8.7,13.8,90,0.00,CLR,,0.00,WeatherDisplay:10.37,2013-02-27 13:47:00,
2013-02-27 07:48:00,27.1,24.6,29.64,NE,47,8.4,15.0,90,0.00,CLR,,0.00,WeatherDisplay:10.37,2013-02-27 13:48:00,
2013-02-27 07:49:00,27.1,24.6,29.64,NE,40,9.5,15.0,90,0.00,CLR,,0.00,WeatherDisplay:10.37,2013-02-27 13:49:00,
2013-02-27 07:50:00,27.1,24.6,29.64,North,352,8.2,18.4,90,0.00,CLR,,0.00,WeatherDisplay:10.37,2013-02-27 13:50:00,
2013-02-27 07:52:00,27.1,24.6,29.64,NNE,20,7.4,10.4,90,0.00,CLR,,0.00,WeatherDisplay:10.37,2013-02-27 13:52:00,
2013-02-27 07:54:00,27.1,24.6,29.64,NNE,14,5.6,13.8,90,0.00,CLR,,0.00,WeatherDisplay:10.37,2013-02-27 13:54:00,
2013-02-27 07:55:00,27.2,24.7,29.64,NNE,16,6.0,9.0,90,0.00,CLR,,0.00,WeatherDisplay:10.37,2013-02-27 13:55:00,
2013-02-27 07:57:00,27.2,24.7,29.64,NNE,24,4.8,15.0,90,0.00,CLR,,0.00,WeatherDisplay:10.37,2013-02-27 13:57:00,
2013-02-27 07:59:00,27.3,24.8,29.64,NNE,24,6.4,10.8,90,0.00,CLR,,0.00,WeatherDisplay:10.37,2013-02-27 13:59:00,
2013-02-27 08:00:00,27.2,24.7,29.64,NE,55,8.6,12.7,90,0.00,CLR,,0.00,WeatherDisplay:10.37,2013-02-27 14:00:00,
2013-02-27 08:02:00,27.2,24.7,29.64,NE,47,6.2,10.4,90,0.00,CLR,,0.00,WeatherDisplay:10.37,2013-02-27 14:02:00,
2013-02-27 08:04:00,27.2,24.7,29.64,NNW,342,5.6,9.2,90,0.00,CLR,,0.00,WeatherDisplay:10.37,2013-02-27 14:04:00,
2013-02-27 08:05:00,27.3,24.8,29.64,North,352,3.9,9.2,90,0.00,CLR,,0.00,WeatherDisplay:10.37,2013-02-27 14:05:00,
2013-02-27 08:06:00,27.2,24.7,29.64,North,360,3.8,5.8,90,0.00,CLR,,0.00,WeatherDisplay:10.37,2013-02-27 14:06:00,
2013-02-27 08:08:00,27.3,24.8,29.64,NE,40,7.1,12.7,90,0.00,CLR,,0.00,WeatherDisplay:10.37,2013-02-27 14:08:00,
2013-02-27 08:09:00,27.3,24.5,29.64,NE,37,6.0,8.1,89,0.00,CLR,,0.00,WeatherDisplay:10.37,2013-02-27 14:09:00,
2013-02-27 08:10:00,27.4,24.9,29.64,North,360,6.3,8.1,90,0.00,CLR,,0.00,WeatherDisplay:10.37,2013-02-27 14:10:00,
2013-02-27 08:11:00,27.4,24.9,29.64,ENE,71,6.7,10.4,90,0.00,CLR,,0.00,WeatherDisplay:10.37,2013-02-27 14:11:00,
2013-02-27 08:13:00,27.4,24.9,29.64,NE,34,6.5,11.5,90,0.00,CLR,,0.00,WeatherDisplay:10.37,2013-02-27 14:13:00,
2013-02-27 08:14:00,27.4,24.6,29.64,NE,38,6.1,11.5,89,0.00,CLR,,0.00,WeatherDisplay:10.37,2013-02-27 14:14:00,
2013-02-27 08:15:00,27.4,24.9,29.64,North,357,6.1,11.5,90,0.00,CLR,,0.00,WeatherDisplay:10.37,2013-02-27 14:15:00,
2013-02-27 08:16:00,27.3,24.8,29.64,North,359,7.6,9.2,90,0.00,CLR,,0.00,WeatherDisplay:10.37,2013-02-27 14:16:00,
2013-02-27 08:18:00,27.4,24.9,29.64,NE,55,8.7,15.0,90,0.00,CLR,,0.00,WeatherDisplay:10.37,2013-02-27 14:18:00,
2013-02-27 08:19:00,27.4,24.9,29.64,NNE,24,6.5,12.7,90,0.00,CLR,,0.00,WeatherDisplay:10.37,2013-02-27 14:19:00,
2013-02-27 08:20:00,27.4,24.9,29.64,NNE,13,5.9,12.7,90,0.00,CLR,,0.00,WeatherDisplay:10.37,2013-02-27 14:20:00,
2013-02-27 08:21:00,27.4,24.9,29.64,ENE,58,5.4,10.4,90,0.00,CLR,,0.00,WeatherDisplay:10.37,2013-02-27 14:21:00,
2013-02-27 08:23:00,27.4,24.9,29.64,NNE,21,6.6,13.8,90,0.00,CLR,,0.00,WeatherDisplay:10.37,2013-02-27 14:23:00,
2013-02-27 08:25:00,27.6,25.1,29.64,North,3,8.6,12.7,90,0.00,CLR,,0.00,WeatherDisplay:10.37,2013-02-27 14:25:00,
2013-02-27 08:26:00,27.7,25.2,29.64,North,360,6.7,10.4,90,0.00,CLR,,0.00,WeatherDisplay:10.37,2013-02-27 14:26:00,
2013-02-27 08:28:00,27.7,25.2,29.64,North,360,8.8,12.7,90,0.00,CLR,,0.00,WeatherDisplay:10.37,2013-02-27 14:28:00,
2013-02-27 08:30:00,27.7,25.2,29.64,NE,42,8.7,11.5,90,0.00,CLR,,0.00,WeatherDisplay:10.37,2013-02-27 14:30:00,
2013-02-27 08:31:00,27.8,25.2,29.64,NNE,25,6.6,11.5,90,0.00,CLR,,0.00,WeatherDisplay:10.37,2013-02-27 14:31:00,
2013-02-27 08:33:00,27.7,25.2,29.64,NNE,13,8.4,11.5,90,0.00,CLR,,0.00,WeatherDisplay:10.37,2013-02-27 14:33:00,
2013-02-27 08:35:00,27.8,25.2,29.64,NNE,28,6.5,11.7,90,0.00,CLR,,0.00,WeatherDisplay:10.37,2013-02-27 14:35:00,
2013-02-27 08:36:00,27.9,25.3,29.64,NNE,31,9.3,17.3,90,0.00,CLR,,0.00,WeatherDisplay:10.37,2013-02-27 14:36:00,
2013-02-27 08:39:00,27.9,25.3,29.64,North,10,4.6,8.1,90,0.00,CLR,,0.00,WeatherDisplay:10.37,2013-02-27 14:39:00,
2013-02-27 08:40:00,28.0,25.4,29.64,NNE,20,9.2,11.5,90,0.00,CLR,,0.00,WeatherDisplay:10.37,2013-02-27 14:40:00,
2013-02-27 08:41:00,28.0,25.4,29.64,NNE,27,8.6,13.8,90,0.00,CLR,,0.00,WeatherDisplay:10.37,2013-02-27 14:41:00,
2013-02-27 08:42:00,28.0,25.4,29.64,NE,35,5.9,9.2,90,0.00,CLR,,0.00,WeatherDisplay:10.37,2013-02-27 14:42:00,
2013-02-27 08:44:00,28.1,25.5,29.64,NNE,28,5.7,11.1,90,0.00,CLR,,0.00,WeatherDisplay:10.37,2013-02-27 14:44:00,
2013-02-27 08:45:00,28.1,25.5,29.64,NE,47,5.8,10.4,90,0.00,CLR,,0.00,WeatherDisplay:10.37,2013-02-27 14:45:00,
2013-02-27 08:46:00,28.1,25.5,29.64,NNW,339,7.1,9.2,90,0.00,CLR,,0.00,WeatherDisplay:10.37,2013-02-27 14:46:00,
2013-02-27 08:47:00,28.1,25.5,29.64,NNE,13,7.7,11.5,90,0.00,CLR,,0.00,WeatherDisplay:10.37,2013-02-27 14:47:00,
2013-02-27 08:49:00,28.2,25.6,29.64,ENE,61,6.1,12.7,90,0.00,CLR,,0.00,WeatherDisplay:10.37,2013-02-27 14:49:00,
2013-02-27 08:50:00,28.2,25.6,29.64,North,357,6.3,9.2,90,0.00,CLR,,0.00,WeatherDisplay:10.37,2013-02-27 14:50:00,
2013-02-27 08:52:00,28.3,25.7,29.64,NE,37,5.6,10.4,90,0.00,CLR,,0.00,WeatherDisplay:10.37,2013-02-27 14:52:00,
2013-02-27 08:54:00,28.3,25.7,29.64,NNE,31,7.5,11.5,90,0.00,CLR,,0.00,WeatherDisplay:10.37,2013-02-27 14:54:00,
2013-02-27 08:55:00,28.4,25.8,29.64,NNE,25,5.7,9.2,90,0.00,CLR,,0.00,WeatherDisplay:10.37,2013-02-27 14:55:00,
2013-02-27 08:57:00,28.4,25.8,29.64,ENE,61,3.6,5.8,90,0.00,CLR,,0.00,WeatherDisplay:10.37,2013-02-27 14:57:00,
2013-02-27 08:59:00,28.5,25.9,29.64,NNE,13,5.4,9.2,90,0.00,CLR,,0.00,WeatherDisplay:10.37,2013-02-27 14:59:00,
2013-02-27 09:01:00,28.5,25.9,29.64,NE,37,9.0,15.0,90,0.00,CLR,,0.00,WeatherDisplay:10.37,2013-02-27 15:01:00,
2013-02-27 09:02:00,28.6,26.0,29.64,NE,41,5.1,9.2,90,0.00,CLR,,0.00,WeatherDisplay:10.37,2013-02-27 15:02:00,
2013-02-27 09:03:00,28.6,26.0,29.64,NE,34,6.2,10.9,90,0.00,CLR,,0.00,WeatherDisplay:10.37,2013-02-27 15:03:00,
2013-02-27 09:04:00,28.6,26.0,29.64,North,11,7.3,11.5,90,0.00,CLR,,0.00,WeatherDisplay:10.37,2013-02-27 15:04:00,
2013-02-27 09:06:00,28.6,26.0,29.64,NE,55,5.4,11.5,90,0.00,CLR,,0.00,WeatherDisplay:10.37,2013-02-27 15:06:00,
2013-02-27 09:07:00,28.7,26.1,29.64,NE,34,6.1,9.2,90,0.00,CLR,,0.00,WeatherDisplay:10.37,2013-02-27 15:07:00,
2013-02-27 09:08:00,28.8,26.2,29.64,North,360,7.2,10.1,90,0.00,CLR,,0.00,WeatherDisplay:10.37,2013-02-27 15:08:00,
2013-02-27 09:09:00,28.8,26.2,29.64,WNW,295,6.7,10.4,90,0.00,CLR,,0.00,WeatherDisplay:10.37,2013-02-27 15:09:00,
2013-02-27 09:11:00,28.8,26.2,29.64,NNW,346,8.7,12.7,90,0.00,CLR,,0.00,WeatherDisplay:10.37,2013-02-27 15:11:00,
2013-02-27 09:12:00,28.8,26.2,29.64,NE,35,6.8,9.2,90,0.00,CLR,,0.00,WeatherDisplay:10.37,2013-02-27 15:12:00,
2013-02-27 09:13:00,28.8,26.2,29.64,North,360,6.7,9.2,90,0.00,CLR,,0.00,WeatherDisplay:10.37,2013-02-27 15:13:00,
2013-02-27 09:14:00,28.9,26.3,29.64,North,7,6.7,9.2,90,0.00,CLR,,0.00,WeatherDisplay:10.37,2013-02-27 15:14:00,
2013-02-27 09:16:00,28.9,26.3,29.64,NNW,339,7.0,9.2,90,0.00,CLR,,0.00,WeatherDisplay:10.37,2013-02-27 15:16:00,
2013-02-27 09:18:00,29.0,26.4,29.64,NNW,342,5.8,8.1,90,0.00,CLR,,0.00,WeatherDisplay:10.37,2013-02-27 15:18:00,
2013-02-27 09:19:00,29.1,26.5,29.64,NNE,17,5.5,10.1,90,0.00,CLR,,0.00,WeatherDisplay:10.37,2013-02-27 15:19:00,
2013-02-27 09:22:00,29.2,26.6,29.64,North,349,5.4,10.4,90,0.00,CLR,,0.00,WeatherDisplay:10.37,2013-02-27 15:22:00,
2013-02-27 09:23:00,29.2,26.6,29.64,North,1,5.7,9.2,90,0.00,CLR,,0.00,WeatherDisplay:10.37,2013-02-27 15:23:00,
2013-02-27 09:24:00,29.3,26.7,29.64,North,360,6.5,10.4,90,0.00,CLR,,0.00,WeatherDisplay:10.37,2013-02-27 15:24:00,
2013-02-27 09:27:00,29.4,26.8,29.64,NNE,24,5.3,12.7,90,0.00,CLR,,0.00,WeatherDisplay:10.37,2013-02-27 15:27:00,
2013-02-27 09:28:00,29.5,26.9,29.64,NNE,27,6.6,11.5,90,0.00,CLR,,0.00,WeatherDisplay:10.37,2013-02-27 15:28:00,
2013-02-27 09:29:00,29.6,27.0,29.64,North,360,6.9,11.5,90,0.00,CLR,,0.00,WeatherDisplay:10.37,2013-02-27 15:29:00,
2013-02-27 09:32:00,29.7,27.1,29.64,North,7,6.9,10.1,90,0.00,CLR,,0.00,WeatherDisplay:10.37,2013-02-27 15:32:00,
2013-02-27 09:33:00,29.7,27.1,29.64,North,360,8.0,9.2,90,0.00,CLR,,0.00,WeatherDisplay:10.37,2013-02-27 15:33:00,
2013-02-27 09:34:00,29.8,27.2,29.64,NW,316,7.0,11.5,90,0.00,CLR,,0.00,WeatherDisplay:10.37,2013-02-27 15:34:00,
2013-02-27 09:38:00,29.9,27.3,29.64,NE,35,7.0,13.9,90,0.00,CLR,,0.00,WeatherDisplay:10.37,2013-02-27 15:38:00,
2013-02-27 09:40:00,30.0,27.4,29.64,NW,322,8.3,12.7,90,0.00,CLR,,0.00,WeatherDisplay:10.37,2013-02-27 15:40:00,
2013-02-27 09:43:00,30.1,27.5,29.64,NNE,18,7.8,11.5,90,0.00,CLR,,0.00,WeatherDisplay:10.37,2013-02-27 15:43:00,
2013-02-27 09:46:00,30.2,27.6,29.63,North,3,8.6,13.8,90,0.00,CLR,,0.00,WeatherDisplay:10.37,2013-02-27 15:46:00,
2013-02-27 09:48:00,30.2,27.6,29.63,North,11,7.8,11.5,90,0.00,CLR,,0.00,WeatherDisplay:10.37,2013-02-27 15:48:00,
2013-02-27 09:51:00,30.3,27.7,29.64,NNE,25,7.1,13.8,90,0.00,CLR,,0.00,WeatherDisplay:10.37,2013-02-27 15:51:00,
2013-02-27 09:53:00,30.4,27.8,29.63,North,352,9.4,11.5,90,0.00,CLR,,0.00,WeatherDisplay:10.37,2013-02-27 15:53:00,
2013-02-27 09:56:00,30.5,27.9,29.63,NE,52,3.0,13.8,90,0.00,CLR,,0.00,WeatherDisplay:10.37,2013-02-27 15:56:00,
2013-02-27 09:58:00,30.5,27.9,29.64,North,7,5.9,9.2,90,0.00,CLR,,0.00,WeatherDisplay:10.37,2013-02-27 15:58:00,
2013-02-27 09:59:00,30.6,28.0,29.63,NNW,330,7.8,10.4,90,0.00,CLR,,0.00,WeatherDisplay:10.37,2013-02-27 15:59:00,
2013-02-27 10:02:00,30.6,27.7,29.63,NE,41,7.2,11.5,89,0.00,CLR,,0.00,WeatherDisplay:10.37,2013-02-27 16:02:00,
2013-02-27 10:03:00,30.6,27.7,29.63,NNE,25,7.0,8.7,89,0.00,CLR,,0.00,WeatherDisplay:10.37,2013-02-27 16:03:00,
2013-02-27 10:04:00,30.6,27.7,29.63,NNW,339,8.6,12.7,89,0.00,CLR,,0.00,WeatherDisplay:10.37,2013-02-27 16:04:00,
2013-02-27 10:07:00,30.6,27.7,29.63,North,360,9.3,12.7,89,0.00,CLR,,0.00,WeatherDisplay:10.37,2013-02-27 16:07:00,
2013-02-27 10:08:00,30.6,27.7,29.63,NNE,18,8.5,13.8,89,0.00,CLR,,0.00,WeatherDisplay:10.37,2013-02-27 16:08:00,
2013-02-27 10:09:00,30.6,27.7,29.63,NNE,32,9.0,16.1,89,0.00,CLR,,0.00,WeatherDisplay:10.37,2013-02-27 16:09:00,
2013-02-27 10:12:00,30.7,27.8,29.63,North,360,5.5,13.8,89,0.00,CLR,,0.00,WeatherDisplay:10.37,2013-02-27 16:12:00,
2013-02-27 10:13:00,30.7,27.8,29.63,NNE,18,6.9,9.2,89,0.00,CLR,,0.00,WeatherDisplay:10.37,2013-02-27 16:13:00,
2013-02-27 10:14:00,30.7,27.8,29.63,NNE,20,8.1,15.0,89,0.00,CLR,,0.00,WeatherDisplay:10.37,2013-02-27 16:14:00,
2013-02-27 10:17:00,30.6,27.7,29.63,NNE,24,7.1,10.4,89,0.00,CLR,,0.00,WeatherDisplay:10.37,2013-02-27 16:17:00,
2013-02-27 10:18:00,30.7,27.8,29.63,NW,312,5.5,11.5,89,0.00,CLR,,0.00,WeatherDisplay:10.37,2013-02-27 16:18:00,
2013-02-27 10:19:00,30.6,27.7,29.63,NNW,344,6.2,11.5,89,0.00,CLR,,0.00,WeatherDisplay:10.37,2013-02-27 16:19:00,
2013-02-27 10:20:00,30.7,27.8,29.63,North,3,5.8,11.5,89,0.00,CLR,,0.00,WeatherDisplay:10.37,2013-02-27 16:20:00,
2013-02-27 10:22:00,30.6,27.7,29.63,North,354,6.2,10.4,89,0.00,CLR,,0.00,WeatherDisplay:10.37,2013-02-27 16:22:00,
2013-02-27 10:24:00,30.6,27.7,29.63,NE,52,7.5,10.4,89,0.00,CLR,,0.00,WeatherDisplay:10.37,2013-02-27 16:24:00,
2013-02-27 10:25:00,30.6,27.7,29.63,NE,49,6.6,11.5,89,0.00,CLR,,0.00,WeatherDisplay:10.37,2013-02-27 16:25:00,
2013-02-27 10:28:00,30.6,27.7,29.63,NE,48,6.3,11.5,89,0.00,CLR,,0.00,WeatherDisplay:10.37,2013-02-27 16:28:00,
2013-02-27 10:29:00,30.5,27.6,29.64,North,7,8.5,11.5,89,0.00,CLR,,0.00,WeatherDisplay:10.37,2013-02-27 16:29:00,
2013-02-27 10:30:00,30.5,27.6,29.63,North,350,8.5,11.5,89,0.00,CLR,,0.00,WeatherDisplay:10.37,2013-02-27 16:30:00,
2013-02-27 10:33:00,30.6,27.7,29.64,NNE,18,9.7,9.8,89,0.00,CLR,,0.00,WeatherDisplay:10.37,2013-02-27 16:33:00,
2013-02-27 10:34:00,30.5,27.6,29.63,North,6,6.7,15.0,89,0.00,CLR,,0.00,WeatherDisplay:10.37,2013-02-27 16:34:00,
2013-02-27 10:35:00,30.6,27.7,29.64,NE,35,6.4,9.2,89,0.00,CLR,,0.00,WeatherDisplay:10.37,2013-02-27 16:35:00,
2013-02-27 10:38:00,30.6,27.7,29.64,NE,37,10.6,16.1,89,0.00,CLR,,0.00,WeatherDisplay:10.37,2013-02-27 16:38:00,
2013-02-27 10:39:00,30.6,27.7,29.64,North,360,6.9,10.4,89,0.00,CLR,,0.00,WeatherDisplay:10.37,2013-02-27 16:39:00,
2013-02-27 10:40:00,30.6,27.7,29.64,NE,44,6.4,10.4,89,0.00,CLR,,0.00,WeatherDisplay:10.37,2013-02-27 16:40:00,
2013-02-27 10:41:00,30.6,27.7,29.64,NE,54,9.1,12.7,89,0.00,CLR,,0.00,WeatherDisplay:10.37,2013-02-27 16:41:00,
2013-02-27 10:43:00,30.6,27.7,29.64,NE,37,6.9,16.1,89,0.00,CLR,,0.00,WeatherDisplay:10.37,2013-02-27 16:43:00,
2013-02-27 10:44:00,30.5,27.6,29.64,NNW,335,9.8,15.0,89,0.00,CLR,,0.00,WeatherDisplay:10.37,2013-02-27 16:44:00,
2013-02-27 10:45:00,30.5,27.6,29.64,NNE,27,9.5,15.0,89,0.00,CLR,,0.00,WeatherDisplay:10.37,2013-02-27 16:45:00,
2013-02-27 10:46:00,30.5,27.6,29.64,NE,45,7.0,11.5,89,0.00,CLR,,0.00,WeatherDisplay:10.37,2013-02-27 16:46:00,
2013-02-27 10:48:00,30.5,27.4,29.64,NNE,17,8.4,13.8,88,0.00,CLR,,0.00,WeatherDisplay:10.37,2013-02-27 16:48:00,
2013-02-27 10:49:00,30.6,27.5,29.64,ENE,65,5.6,11.5,88,0.00,CLR,,0.00,WeatherDisplay:10.37,2013-02-27 16:49:00,
2013-02-27 10:50:00,30.6,27.5,29.64,NNE,31,4.8,11.5,88,0.00,CLR,,0.00,WeatherDisplay:10.37,2013-02-27 16:50:00,
2013-02-27 10:51:00,30.6,27.5,29.64,NNE,17,4.4,6.9,88,0.00,CLR,,0.00,WeatherDisplay:10.37,2013-02-27 16:51:00,
2013-02-27 10:54:00,30.6,27.5,29.64,NNE,23,7.9,15.0,88,0.00,CLR,,0.00,WeatherDisplay:10.37,2013-02-27 16:54:00,
2013-02-27 10:55:00,30.6,27.5,29.64,North,8,7.8,13.8,88,0.00,CLR,,0.00,WeatherDisplay:10.37,2013-02-27 16:55:00,
2013-02-27 10:57:00,30.7,27.6,29.63,NNE,14,10.7,12.7,88,0.00,CLR,,0.00,WeatherDisplay:10.37,2013-02-27 16:57:00,
2013-02-27 10:59:00,30.7,27.6,29.64,NNE,24,10.1,15.0,88,0.00,CLR,,0.00,WeatherDisplay:10.37,2013-02-27 16:59:00,
2013-02-27 11:00:00,30.6,27.5,29.64,NNE,24,7.2,11.5,88,0.00,CLR,,0.00,WeatherDisplay:10.37,2013-02-27 17:00:00,
2013-02-27 11:02:00,30.8,27.7,29.64,North,1,4.1,6.9,88,0.00,CLR,,0.00,WeatherDisplay:10.37,2013-02-27 17:02:00,
2013-02-27 11:04:00,30.8,27.7,29.64,NNE,13,4.4,12.7,88,0.00,CLR,,0.00,WeatherDisplay:10.37,2013-02-27 17:04:00,
2013-02-27 11:05:00,30.9,27.8,29.64,North,360,7.9,12.7,88,0.00,CLR,,0.00,WeatherDisplay:10.37,2013-02-27 17:05:00,
2013-02-27 11:07:00,30.9,27.8,29.64,NNW,339,7.3,10.4,88,0.00,CLR,,0.00,WeatherDisplay:10.37,2013-02-27 17:07:00,
2013-02-27 11:09:00,31.0,27.9,29.64,North,360,6.5,9.2,88,0.00,CLR,,0.00,WeatherDisplay:10.37,2013-02-27 17:09:00,
2013-02-27 11:10:00,31.0,27.9,29.64,East,79,3.6,8.1,88,0.00,CLR,,0.00,WeatherDisplay:10.37,2013-02-27 17:10:00,
2013-02-27 11:12:00,31.0,27.9,29.64,NNE,32,9.8,13.8,88,0.00,CLR,,0.00,WeatherDisplay:10.37,2013-02-27 17:12:00,
2013-02-27 11:14:00,31.1,27.7,29.64,NNE,13,6.8,11.5,87,0.00,CLR,,0.00,WeatherDisplay:10.37,2013-02-27 17:14:00,
2013-02-27 11:15:00,31.1,27.7,29.64,NNE,27,7.6,11.5,87,0.00,CLR,,0.00,WeatherDisplay:10.37,2013-02-27 17:15:00,
2013-02-27 11:16:00,31.1,27.7,29.64,NNE,16,5.7,10.4,87,0.00,CLR,,0.00,WeatherDisplay:10.37,2013-02-27 17:16:00,
2013-02-27 11:18:00,31.2,27.8,29.64,North,11,9.3,13.8,87,0.00,CLR,,0.00,WeatherDisplay:10.37,2013-02-27 17:18:00,
2013-02-27 11:19:00,31.1,27.7,29.64,North,4,7.5,12.7,87,0.00,CLR,,0.00,WeatherDisplay:10.37,2013-02-27 17:19:00,
2013-02-27 11:20:00,31.2,27.8,29.64,NE,38,8.4,12.7,87,0.00,CLR,,0.00,WeatherDisplay:10.37,2013-02-27 17:20:00,
2013-02-27 11:21:00,31.1,27.7,29.64,NNE,30,7.6,14.1,87,0.00,CLR,,0.00,WeatherDisplay:10.37,2013-02-27 17:21:00,
2013-02-27 11:23:00,31.2,27.8,29.64,NNE,23,6.9,10.4,87,0.00,CLR,,0.00,WeatherDisplay:10.37,2013-02-27 17:23:00,
2013-02-27 11:24:00,31.2,27.8,29.64,NE,41,5.9,10.4,87,0.00,CLR,,0.00,WeatherDisplay:10.37,2013-02-27 17:24:00,
2013-02-27 11:25:00,31.2,27.8,29.64,North,354,5.8,10.4,87,0.00,CLR,,0.00,WeatherDisplay:10.37,2013-02-27 17:25:00,
2013-02-27 11:26:00,31.3,27.9,29.65,NNW,346,4.9,8.1,87,0.00,CLR,,0.00,WeatherDisplay:10.37,2013-02-27 17:26:00,
2013-02-27 11:28:00,31.3,27.9,29.64,NNW,343,6.0,13.8,87,0.00,CLR,,0.00,WeatherDisplay:10.37,2013-02-27 17:28:00,
2013-02-27 11:30:00,31.3,27.9,29.65,NNE,27,4.7,8.1,87,0.00,CLR,,0.00,WeatherDisplay:10.37,2013-02-27 17:30:00,
2013-02-27 11:31:00,31.3,27.9,29.65,North,350,6.1,7.5,87,0.00,CLR,,0.00,WeatherDisplay:10.37,2013-02-27 17:31:00,
2013-02-27 11:33:00,31.4,27.7,29.65,NE,35,4.5,8.1,86,0.00,CLR,,0.00,WeatherDisplay:10.37,2013-02-27 17:33:00,
2013-02-27 11:35:00,31.4,27.7,29.65,NE,45,7.3,9.2,86,0.00,CLR,,0.00,WeatherDisplay:10.37,2013-02-27 17:35:00,
2013-02-27 11:36:00,31.3,27.6,29.65,North,11,6.3,9.2,86,0.00,CLR,,0.00,WeatherDisplay:10.37,2013-02-27 17:36:00,
2013-02-27 11:38:00,31.4,27.7,29.65,NE,42,4.6,6.9,86,0.00,CLR,,0.00,WeatherDisplay:10.37,2013-02-27 17:38:00,
2013-02-27 11:40:00,31.5,27.8,29.65,North,350,6.8,10.4,86,0.00,CLR,,0.00,WeatherDisplay:10.37,2013-02-27 17:40:00,
2013-02-27 11:41:00,31.4,27.7,29.65,NE,47,7.1,15.0,86,0.00,CLR,,0.00,WeatherDisplay:10.37,2013-02-27 17:41:00,
2013-02-27 11:43:00,31.4,27.7,29.64,North,7,7.8,11.5,86,0.00,CLR,,0.00,WeatherDisplay:10.37,2013-02-27 17:43:00,
2013-02-27 11:45:00,31.4,27.7,29.64,NNE,32,7.0,10.4,86,0.00,CLR,,0.00,WeatherDisplay:10.37,2013-02-27 17:45:00,
2013-02-27 11:46:00,31.3,27.6,29.65,NNE,21,6.0,9.2,86,0.00,CLR,,0.00,WeatherDisplay:10.37,2013-02-27 17:46:00,
2013-02-27 11:48:00,31.2,27.5,29.65,North,1,6.4,12.1,86,0.00,CLR,,0.00,WeatherDisplay:10.37,2013-02-27 17:48:00,
2013-02-27 11:50:00,31.2,27.5,29.64,NNE,24,4.8,8.3,86,0.00,CLR,,0.00,WeatherDisplay:10.37,2013-02-27 17:50:00,
2013-02-27 11:52:00,31.2,27.5,29.65,NNE,14,5.6,9.2,86,0.00,CLR,,0.00,WeatherDisplay:10.37,2013-02-27 17:52:00,
2013-02-27 11:53:00,31.2,27.5,29.65,NNE,31,9.2,9.7,86,0.00,CLR,,0.00,WeatherDisplay:10.37,2013-02-27 17:53:00,
2013-02-27 11:56:00,31.3,27.3,29.65,North,360,5.1,9.2,85,0.00,CLR,,0.00,WeatherDisplay:10.37,2013-02-27 17:56:00,
2013-02-27 11:57:00,31.3,27.3,29.65,NE,48,4.2,8.1,85,0.00,CLR,,0.00,WeatherDisplay:10.37,2013-02-27 17:57:00,
2013-02-27 11:58:00,31.2,27.2,29.64,NNE,20,7.3,11.5,85,0.00,CLR,,0.00,WeatherDisplay:10.37,2013-02-27 17:58:00,
2013-02-27 12:01:00,31.3,27.3,29.64,NNE,21,9.0,13.8,85,0.00,CLR,,0.00,WeatherDisplay:10.37,2013-02-27 18:01:00,
2013-02-27 12:02:00,31.3,27.3,29.64,NNE,24,6.8,11.5,85,0.00,CLR,,0.00,WeatherDisplay:10.37,2013-02-27 18:02:00,
2013-02-27 12:04:00,31.2,27.2,29.64,NNE,14,8.4,11.5,85,0.00,CLR,,0.00,WeatherDisplay:10.37,2013-02-27 18:04:00,
2013-02-27 12:06:00,31.4,27.4,29.65,NE,37,5.6,10.7,85,0.00,CLR,,0.00,WeatherDisplay:10.37,2013-02-27 18:06:00,
2013-02-27 12:07:00,31.3,27.3,29.65,NW,308,7.9,11.5,85,0.00,CLR,,0.00,WeatherDisplay:10.37,2013-02-27 18:07:00,
2013-02-27 12:09:00,31.3,27.3,29.64,NE,34,7.6,10.4,85,0.00,CLR,,0.00,WeatherDisplay:10.37,2013-02-27 18:09:00,
2013-02-27 12:11:00,31.4,27.4,29.65,NE,38,6.7,8.1,85,0.00,CLR,,0.00,WeatherDisplay:10.37,2013-02-27 18:11:00,
2013-02-27 12:12:00,31.4,27.4,29.65,North,359,7.6,10.4,85,0.00,CLR,,0.00,WeatherDisplay:10.37,2013-02-27 18:12:00,
2013-02-27 12:14:00,31.4,27.4,29.65,North,4,6.9,9.2,85,0.00,CLR,,0.00,WeatherDisplay:10.37,2013-02-27 18:14:00,
2013-02-27 12:16:00,31.5,27.5,29.65,North,3,8.0,12.7,85,0.00,CLR,,0.00,WeatherDisplay:10.37,2013-02-27 18:16:00,
2013-02-27 12:17:00,31.5,27.2,29.65,North,360,7.4,10.4,84,0.01,RA,,0.01,WeatherDisplay:10.37,2013-02-27 18:17:00,
2013-02-27 12:19:00,31.7,27.4,29.65,NNE,16,8.0,8.1,84,0.01,RA,,0.01,WeatherDisplay:10.37,2013-02-27 18:19:00,
2013-02-27 12:21:00,31.6,27.6,29.64,NNE,14,5.9,9.2,85,0.01,RA,,0.01,WeatherDisplay:10.37,2013-02-27 18:21:00,
2013-02-27 12:22:00,31.7,27.7,29.64,East,90,6.0,9.6,85,0.01,RA,,0.01,WeatherDisplay:10.37,2013-02-27 18:22:00,
2013-02-27 12:24:00,31.8,27.5,29.64,North,350,8.6,13.8,84,0.01,RA,,0.01,WeatherDisplay:10.37,2013-02-27 18:24:00,
2013-02-27 12:26:00,31.9,27.6,29.64,NE,35,5.5,10.4,84,0.01,RA,,0.01,WeatherDisplay:10.37,2013-02-27 18:26:00,
2013-02-27 12:27:00,31.9,27.6,29.64,NW,319,4.0,6.9,84,0.01,,,0.01,WeatherDisplay:10.37,2013-02-27 18:27:00,
2013-02-27 12:28:00,32.0,27.7,29.64,ENE,61,3.7,6.9,84,0.01,,,0.01,WeatherDisplay:10.37,2013-02-27 18:28:00,
2013-02-27 12:29:00,31.9,27.6,29.64,North,360,4.0,5.8,84,0.01,,,0.01,WeatherDisplay:10.37,2013-02-27 18:29:00,
2013-02-27 12:31:00,32.0,27.7,29.64,North,360,7.3,16.1,84,0.01,CLR,,0.01,WeatherDisplay:10.37,2013-02-27 18:31:00,
2013-02-27 12:32:00,32.0,27.7,29.65,North,360,8.5,12.7,84,0.01,CLR,,0.01,WeatherDisplay:10.37,2013-02-27 18:32:00,
2013-02-27 12:33:00,32.0,27.4,29.65,North,11,8.2,12.7,83,0.01,CLR,,0.01,WeatherDisplay:10.37,2013-02-27 18:33:00,
2013-02-27 12:35:00,32.0,27.4,29.64,NNE,16,6.0,9.1,83,0.01,CLR,,0.01,WeatherDisplay:10.37,2013-02-27 18:35:00,
2013-02-27 12:36:00,32.0,27.4,29.64,NE,42,5.3,9.2,83,0.01,CLR,,0.01,WeatherDisplay:10.37,2013-02-27 18:36:00,
2013-02-27 12:38:00,32.0,27.4,29.64,NNW,328,9.4,11.5,83,0.01,CLR,,0.01,WeatherDisplay:10.37,2013-02-27 18:38:00,
2013-02-27 12:40:00,31.9,27.3,29.64,North,7,8.8,12.7,83,0.01,CLR,,0.01,WeatherDisplay:10.37,2013-02-27 18:40:00,
2013-02-27 12:42:00,31.8,27.2,29.64,North,7,7.7,13.8,83,0.01,CLR,,0.01,WeatherDisplay:10.37,2013-02-27 18:42:00,
2013-02-27 12:43:00,31.7,27.1,29.64,North,8,8.6,11.5,83,0.01,CLR,,0.01,WeatherDisplay:10.37,2013-02-27 18:43:00,
2013-02-27 12:45:00,31.7,27.4,29.64,NNE,21,9.5,13.8,84,0.01,CLR,,0.01,WeatherDisplay:10.37,2013-02-27 18:45:00,
2013-02-27 12:47:00,31.6,27.3,29.64,NNE,20,5.2,9.2,84,0.01,CLR,,0.01,WeatherDisplay:10.37,2013-02-27 18:47:00,
2013-02-27 12:48:00,31.6,27.3,29.64,North,360,8.5,15.0,84,0.01,CLR,,0.01,WeatherDisplay:10.37,2013-02-27 18:48:00,
2013-02-27 12:50:00,31.5,27.2,29.64,North,360,7.6,12.7,84,0.01,CLR,,0.01,WeatherDisplay:10.37,2013-02-27 18:50:00,
2013-02-27 12:52:00,31.5,27.2,29.64,NNE,32,8.8,13.8,84,0.01,CLR,,0.01,WeatherDisplay:10.37,2013-02-27 18:52:00,
2013-02-27 12:53:00,31.3,27.0,29.64,North,356,6.7,13.8,84,0.01,CLR,,0.01,WeatherDisplay:10.37,2013-02-27 18:53:00,
2013-02-27 12:55:00,31.3,27.3,29.64,North,6,5.7,9.2,85,0.01,CLR,,0.01,WeatherDisplay:10.37,2013-02-27 18:55:00,
2013-02-27 12:57:00,31.2,27.2,29.64,East,79,6.0,10.4,85,0.01,CLR,,0.01,WeatherDisplay:10.37,2013-02-27 18:57:00,
2013-02-27 12:58:00,31.3,27.6,29.64,North,360,6.8,11.5,86,0.01,CLR,,0.01,WeatherDisplay:10.37,2013-02-27 18:58:00,
2013-02-27 12:59:00,31.3,27.6,29.64,NW,326,7.5,10.4,86,0.01,CLR,,0.01,WeatherDisplay:10.37,2013-02-27 18:59:00,
2013-02-27 13:01:00,31.4,27.7,29.64,North,11,8.6,9.8,86,0.01,CLR,,0.01,WeatherDisplay:10.37,2013-02-27 19:01:00,
2013-02-27 13:02:00,31.3,27.6,29.64,NNE,28,6.6,12.7,86,0.01,CLR,,0.02,WeatherDisplay:10.37,2013-02-27 19:02:00,
2013-02-27 13:03:00,31.3,27.6,29.64,NW,309,8.0,11.5,86,0.02,RA,,0.02,WeatherDisplay:10.37,2013-02-27 19:03:00,
2013-02-27 13:04:00,31.3,27.6,29.64,North,0,7.2,11.5,86,0.02,RA,,0.02,WeatherDisplay:10.37,2013-02-27 19:04:00,
2013-02-27 13:06:00,31.4,27.7,29.64,NNW,332,6.8,10.6,86,0.02,RA,,0.02,WeatherDisplay:10.37,2013-02-27 19:06:00,
2013-02-27 13:07:00,31.3,27.6,29.64,North,360,9.1,11.5,86,0.02,RA,,0.02,WeatherDisplay:10.37,2013-02-27 19:07:00,
2013-02-27 13:08:00,31.4,27.7,29.65,NNE,17,6.6,11.5,86,0.02,RA,,0.02,WeatherDisplay:10.37,2013-02-27 19:08:00,
2013-02-27 13:09:00,31.4,27.7,29.65,North,4,5.7,11.5,86,0.02,RA,,0.02,WeatherDisplay:10.37,2013-02-27 19:09:00,
2013-02-27 13:11:00,31.4,27.7,29.64,NNW,339,6.0,10.4,86,0.02,RA,,0.02,WeatherDisplay:10.37,2013-02-27 19:11:00,
2013-02-27 13:12:00,31.4,27.7,29.64,NE,54,6.1,10.4,86,0.02,RA,,0.02,WeatherDisplay:10.37,2013-02-27 19:12:00,
2013-02-27 13:13:00,31.4,27.7,29.64,North,10,6.4,12.7,86,0.02,,,0.02,WeatherDisplay:10.37,2013-02-27 19:13:00,
2013-02-27 13:14:00,31.4,27.7,29.64,NNE,16,6.7,12.7,86,0.02,,,0.02,WeatherDisplay:10.37,2013-02-27 19:14:00,
2013-02-27 13:16:00,31.4,27.7,29.64,NNE,21,3.7,5.8,86,0.02,CLR,,0.02,WeatherDisplay:10.37,2013-02-27 19:16:00,
2013-02-27 13:17:00,31.4,27.7,29.64,North,11,5.9,7.5,86,0.02,CLR,,0.02,WeatherDisplay:10.37,2013-02-27 19:17:00,
2013-02-27 13:18:00,31.4,27.7,29.64,NNW,336,7.1,12.7,86,0.02,RA,,0.03,WeatherDisplay:10.37,2013-02-27 19:18:00,
2013-02-27 13:19:00,31.4,27.7,29.64,NE,34,5.8,12.7,86,0.02,RA,,0.03,WeatherDisplay:10.37,2013-02-27 19:19:00,
2013-02-27 13:21:00,31.5,27.8,29.64,NE,51,6.7,12.7,86,0.02,RA,,0.03,WeatherDisplay:10.37,2013-02-27 19:21:00,
2013-02-27 13:22:00,31.5,27.8,29.64,NNE,13,8.0,10.4,86,0.02,RA,,0.03,WeatherDisplay:10.37,2013-02-27 19:22:00,
2013-02-27 13:23:00,31.4,27.7,29.64,North,360,7.5,13.8,86,0.02,RA,,0.03,WeatherDisplay:10.37,2013-02-27 19:23:00,
2013-02-27 13:24:00,31.5,27.8,29.64,NW,325,6.7,13.8,86,0.02,RA,,0.03,WeatherDisplay:10.37,2013-02-27 19:24:00,
2013-02-27 13:26:00,31.4,27.7,29.64,NW,326,3.9,5.8,86,0.02,RA,,0.03,WeatherDisplay:10.37,2013-02-27 19:26:00,
2013-02-27 13:27:00,31.4,27.7,29.64,North,360,6.2,9.2,86,0.02,RA,,0.03,WeatherDisplay:10.37,2013-02-27 19:27:00,
2013-02-27 13:28:00,31.4,27.7,29.64,North,360,4.9,5.8,86,0.02,,,0.03,WeatherDisplay:10.37,2013-02-27 19:28:00,
2013-02-27 13:29:00,31.5,27.8,29.64,WNW,291,4.7,6.1,86,0.02,,,0.03,WeatherDisplay:10.37,2013-02-27 19:29:00,
2013-02-27 13:32:00,31.6,27.9,29.64,NE,40,5.2,8.1,86,0.03,RA,,0.04,WeatherDisplay:10.37,2013-02-27 19:32:00,
2013-02-27 13:33:00,31.6,27.9,29.65,NNW,340,7.4,10.4,86,0.03,RA,,0.04,WeatherDisplay:10.37,2013-02-27 19:33:00,
2013-02-27 13:34:00,31.7,28.0,29.65,North,1,6.4,10.4,86,0.03,RA,,0.04,WeatherDisplay:10.37,2013-02-27 19:34:00,
2013-02-27 13:37:00,31.7,28.0,29.64,NNE,32,6.0,8.1,86,0.03,RA,,0.04,WeatherDisplay:10.37,2013-02-27 19:37:00,
2013-02-27 13:38:00,31.7,28.0,29.64,North,360,5.7,10.4,86,0.03,RA,,0.04,WeatherDisplay:10.37,2013-02-27 19:38:00,
2013-02-27 13:39:00,31.8,28.1,29.64,NNE,24,7.1,9.3,86,0.03,RA,,0.04,WeatherDisplay:10.37,2013-02-27 19:39:00,
2013-02-27 13:42:00,31.8,28.1,29.64,NNE,23,5.8,9.2,86,0.03,,,0.04,WeatherDisplay:10.37,2013-02-27 19:42:00,
2013-02-27 13:43:00,31.8,28.1,29.64,NNW,343,5.6,8.1,86,0.03,CLR,,0.04,WeatherDisplay:10.37,2013-02-27 19:43:00,
2013-02-27 13:44:00,31.9,28.2,29.64,North,349,4.2,9.2,86,0.03,CLR,,0.04,WeatherDisplay:10.37,2013-02-27 19:44:00,
2013-02-27 13:45:00,31.9,28.2,29.65,NNE,14,5.0,7.0,86,0.03,CLR,,0.04,WeatherDisplay:10.37,2013-02-27 19:45:00,
2013-02-27 13:47:00,32.0,28.3,29.64,NNW,340,5.9,11.3,86,0.03,CLR,,0.05,WeatherDisplay:10.37,2013-02-27 19:47:00,
2013-02-27 13:48:00,32.1,28.4,29.64,North,360,8.2,15.0,86,0.04,RA,,0.05,WeatherDisplay:10.37,2013-02-27 19:48:00,
2013-02-27 13:49:00,32.1,28.4,29.65,North,360,7.3,11.5,86,0.04,RA,,0.05,WeatherDisplay:10.37,2013-02-27 19:49:00,
2013-02-27 13:50:00,32.2,28.5,29.65,North,10,7.7,11.5,86,0.04,RA,,0.05,WeatherDisplay:10.37,2013-02-27 19:50:00,
2013-02-27 13:52:00,32.1,28.4,29.65,North,353,5.3,12.7,86,0.04,RA,,0.05,WeatherDisplay:10.37,2013-02-27 19:52:00,
2013-02-27 13:53:00,32.2,28.5,29.65,NNW,333,5.7,9.8,86,0.04,RA,,0.05,WeatherDisplay:10.37,2013-02-27 19:53:00,
2013-02-27 13:54:00,32.2,28.5,29.65,NNE,25,7.1,9.2,86,0.04,RA,,0.05,WeatherDisplay:10.37,2013-02-27 19:54:00,
2013-02-27 13:55:00,32.2,28.5,29.65,NNW,329,6.8,10.4,86,0.04,RA,,0.05,WeatherDisplay:10.37,2013-02-27 19:55:00,
2013-02-27 13:57:00,32.4,28.7,29.65,NE,48,6.3,10.4,86,0.04,RA,,0.05,WeatherDisplay:10.37,2013-02-27 19:57:00,
2013-02-27 13:58:00,32.4,28.7,29.65,North,354,4.1,9.2,86,0.04,,,0.05,WeatherDisplay:10.37,2013-02-27 19:58:00,
2013-02-27 13:59:00,32.5,28.8,29.65,NNW,332,5.4,6.0,86,0.04,,,0.05,WeatherDisplay:10.37,2013-02-27 19:59:00,
2013-02-27 14:00:00,32.6,28.9,29.65,NNE,17,5.4,8.1,86,0.04,CLR,,0.05,WeatherDisplay:10.37,2013-02-27 20:00:00,
2013-02-27 14:02:00,32.8,29.1,29.65,North,4,5.7,6.5,86,0.04,CLR,,0.05,WeatherDisplay:10.37,2013-02-27 20:02:00,
2013-02-27 14:03:00,32.8,28.8,29.65,NNE,18,4.7,6.9,85,0.03,CLR,,0.05,WeatherDisplay:10.37,2013-02-27 20:03:00,
2013-02-27 14:04:00,32.9,28.9,29.65,North,352,4.4,9.1,85,0.03,CLR,,0.05,WeatherDisplay:10.37,2013-02-27 20:04:00,
2013-02-27 14:05:00,33.0,29.0,29.65,NW,322,5.0,8.1,85,0.03,CLR,,0.05,WeatherDisplay:10.37,2013-02-27 20:05:00,
2013-02-27 14:07:00,33.0,29.0,29.65,North,1,7.4,13.8,85,0.03,CLR,,0.05,WeatherDisplay:10.37,2013-02-27 20:07:00,
2013-02-27 14:08:00,33.0,28.7,29.65,WNW,302,7.5,10.4,84,0.03,CLR,,0.05,WeatherDisplay:10.37,2013-02-27 20:08:00,
2013-02-27 14:10:00,33.2,28.9,29.65,NNW,335,5.3,9.5,84,0.03,CLR,,0.05,WeatherDisplay:10.37,2013-02-27 20:10:00,
2013-02-27 14:12:00,33.1,28.5,29.65,North,3,7.4,11.5,83,0.03,CLR,,0.05,WeatherDisplay:10.37,2013-02-27 20:12:00,
2013-02-27 14:13:00,33.1,28.8,29.65,NNE,17,7.9,11.5,84,0.03,CLR,,0.05,WeatherDisplay:10.37,2013-02-27 20:13:00,
2013-02-27 14:15:00,33.1,28.8,29.65,NNW,328,5.8,9.2,84,0.03,CLR,,0.05,WeatherDisplay:10.37,2013-02-27 20:15:00,
2013-02-27 14:17:00,32.9,28.3,29.65,NNE,21,7.9,11.5,83,0.03,CLR,,0.05,WeatherDisplay:10.37,2013-02-27 20:17:00,
2013-02-27 14:18:00,33.0,28.4,29.65,NNW,347,7.6,11.5,83,0.03,CLR,,0.05,WeatherDisplay:10.37,2013-02-27 20:18:00,
2013-02-27 14:20:00,32.9,28.3,29.65,NNE,14,7.2,11.5,83,0.02,CLR,,0.05,WeatherDisplay:10.37,2013-02-27 20:20:00,
2013-02-27 14:22:00,32.9,28.3,29.65,North,349,6.8,9.2,83,0.02,CLR,,0.05,WeatherDisplay:10.37,2013-02-27 20:22:00,
2013-02-27 14:23:00,32.9,28.3,29.65,NNE,23,7.1,11.5,83,0.02,CLR,,0.05,WeatherDisplay:10.37,2013-02-27 20:23:00,
2013-02-27 14:25:00,32.8,28.2,29.65,North,360,8.3,13.8,83,0.02,CLR,,0.05,WeatherDisplay:10.37,2013-02-27 20:25:00,
2013-02-27 14:28:00,32.8,28.2,29.65,NNW,346,9.4,12.7,83,0.02,CLR,,0.05,WeatherDisplay:10.37,2013-02-27 20:28:00,
2013-02-27 14:30:00,32.8,28.2,29.65,NNE,24,6.3,12.7,83,0.02,CLR,,0.05,WeatherDisplay:10.37,2013-02-27 20:30:00,
2013-02-27 14:33:00,32.8,28.2,29.65,NE,49,5.1,11.5,83,0.01,CLR,,0.05,WeatherDisplay:10.37,2013-02-27 20:33:00,
2013-02-27 14:35:00,32.7,28.1,29.66,North,359,8.7,13.8,83,0.01,CLR,,0.06,WeatherDisplay:10.37,2013-02-27 20:35:00,
2013-02-27 14:38:00,32.7,28.1,29.66,North,354,8.1,12.7,83,0.02,RA,,0.06,WeatherDisplay:10.37,2013-02-27 20:38:00,
2013-02-27 14:40:00,32.5,27.9,29.66,NNE,23,6.2,12.7,83,0.02,RA,,0.06,WeatherDisplay:10.37,2013-02-27 20:40:00,
2013-02-27 14:41:00,32.5,27.9,29.66,North,350,6.6,12.7,83,0.02,RA,,0.06,WeatherDisplay:10.37,2013-02-27 20:41:00,
2013-02-27 14:43:00,32.4,27.8,29.66,NNE,27,6.4,11.1,83,0.02,RA,,0.06,WeatherDisplay:10.37,2013-02-27 20:43:00,
2013-02-27 14:45:00,32.4,27.8,29.66,WNW,292,3.8,8.1,83,0.02,RA,,0.06,WeatherDisplay:10.37,2013-02-27 20:45:00,
2013-02-27 14:46:00,32.4,27.8,29.66,ENE,71,5.1,8.2,83,0.02,,,0.06,WeatherDisplay:10.37,2013-02-27 20:46:00,
2013-02-27 14:48:00,32.3,27.7,29.66,NNE,14,5.8,9.2,83,0.01,CLR,,0.06,WeatherDisplay:10.37,2013-02-27 20:48:00,
2013-02-27 14:50:00,32.2,27.9,29.66,NNW,330,8.0,9.7,84,0.01,CLR,,0.06,WeatherDisplay:10.37,2013-02-27 20:50:00,
2013-02-27 14:51:00,32.2,27.9,29.66,NNE,20,7.1,11.5,84,0.01,CLR,,0.06,WeatherDisplay:10.37,2013-02-27 20:51:00,
2013-02-27 14:53:00,32.1,27.8,29.66,NNE,18,6.3,10.4,84,0.01,CLR,,0.06,WeatherDisplay:10.37,2013-02-27 20:53:00,
2013-02-27 14:54:00,32.1,27.8,29.66,NNE,24,6.4,9.2,84,0.01,CLR,,0.06,WeatherDisplay:10.37,2013-02-27 20:54:00,
2013-02-27 14:55:00,32.0,27.7,29.66,NNE,20,5.2,11.5,84,0.01,CLR,,0.06,WeatherDisplay:10.37,2013-02-27 20:55:00,
2013-02-27 14:56:00,32.0,27.7,29.66,NE,41,6.5,8.1,84,0.01,CLR,,0.06,WeatherDisplay:10.37,2013-02-27 20:56:00,
2013-02-27 14:58:00,32.0,27.7,29.66,NNE,16,5.2,11.5,84,0.01,CLR,,0.06,WeatherDisplay:10.37,2013-02-27 20:58:00,
2013-02-27 14:59:00,32.0,27.7,29.66,North,6,5.4,11.5,84,0.01,CLR,,0.06,WeatherDisplay:10.37,2013-02-27 20:59:00,
2013-02-27 15:00:00,31.9,27.6,29.66,NNE,23,4.9,11.5,84,0.01,CLR,,0.06,WeatherDisplay:10.37,2013-02-27 21:00:00,
2013-02-27 15:01:00,32.0,27.7,29.66,NNW,340,6.0,10.4,84,0.01,CLR,,0.07,WeatherDisplay:10.37,2013-02-27 21:01:00,
2013-02-27 15:04:00,31.9,27.6,29.66,North,3,5.9,9.2,84,0.02,RA,,0.07,WeatherDisplay:10.37,2013-02-27 21:04:00,
2013-02-27 15:05:00,32.0,27.7,29.67,NNW,330,7.2,11.5,84,0.02,RA,,0.07,WeatherDisplay:10.37,2013-02-27 21:05:00,
2013-02-27 15:06:00,31.9,27.6,29.67,North,360,5.8,11.5,84,0.02,RA,,0.07,WeatherDisplay:10.37,2013-02-27 21:06:00,
2013-02-27 15:09:00,32.0,27.7,29.67,NNE,13,4.5,6.3,84,0.02,RA,,0.07,WeatherDisplay:10.37,2013-02-27 21:09:00,
2013-02-27 15:10:00,31.9,27.6,29.67,NW,322,6.9,9.2,84,0.02,RA,,0.07,WeatherDisplay:10.37,2013-02-27 21:10:00,
2013-02-27 15:11:00,32.0,27.7,29.67,NNE,30,6.3,9.2,84,0.02,RA,,0.07,WeatherDisplay:10.37,2013-02-27 21:11:00,
2013-02-27 15:14:00,31.9,27.6,29.67,NW,319,4.0,10.4,84,0.02,CLR,,0.07,WeatherDisplay:10.37,2013-02-27 21:14:00,
2013-02-27 15:15:00,31.9,27.6,29.67,NNW,329,4.9,6.9,84,0.02,CLR,,0.07,WeatherDisplay:10.37,2013-02-27 21:15:00,
2013-02-27 15:16:00,31.9,27.6,29.67,NNE,28,4.5,6.9,84,0.02,CLR,,0.07,WeatherDisplay:10.37,2013-02-27 21:16:00,
2013-02-27 15:19:00,32.0,27.7,29.67,NNW,335,5.4,9.2,84,0.02,CLR,,0.07,WeatherDisplay:10.37,2013-02-27 21:19:00,
2013-02-27 15:20:00,32.0,27.7,29.67,North,360,7.6,11.5,84,0.02,CLR,,0.07,WeatherDisplay:10.37,2013-02-27 21:20:00,
2013-02-27 15:21:00,32.0,27.7,29.67,North,8,5.7,11.5,84,0.02,CLR,,0.07,WeatherDisplay:10.37,2013-02-27 21:21:00,
2013-02-27 15:24:00,32.0,27.7,29.67,NNW,344,5.5,11.5,84,0.02,CLR,,0.07,WeatherDisplay:10.37,2013-02-27 21:24:00,
2013-02-27 15:26:00,32.0,27.7,29.67,NW,316,6.2,11.5,84,0.02,CLR,,0.07,WeatherDisplay:10.37,2013-02-27 21:26:00,
2013-02-27 15:29:00,32.0,27.4,29.67,North,10,6.7,12.7,83,0.02,CLR,,0.07,WeatherDisplay:10.37,2013-02-27 21:29:00,
2013-02-27 15:31:00,32.0,27.4,29.67,North,6,5.6,11.5,83,0.02,CLR,,0.07,WeatherDisplay:10.37,2013-02-27 21:31:00,
2013-02-27 15:34:00,32.1,27.5,29.67,North,360,7.0,10.4,83,0.02,CLR,,0.07,WeatherDisplay:10.37,2013-02-27 21:34:00,
2013-02-27 15:36:00,32.0,27.4,29.67,North,360,7.0,11.5,83,0.01,CLR,,0.07,WeatherDisplay:10.37,2013-02-27 21:36:00,
2013-02-27 15:39:00,31.9,27.3,29.68,North,354,4.9,9.2,83,0.02,RA,,0.08,WeatherDisplay:10.37,2013-02-27 21:39:00,
2013-02-27 15:41:00,31.8,27.2,29.68,NNW,330,6.9,12.7,83,0.02,RA,,0.08,WeatherDisplay:10.37,2013-02-27 21:41:00,
2013-02-27 15:42:00,31.8,27.2,29.68,North,1,4.9,9.2,83,0.02,RA,,0.08,WeatherDisplay:10.37,2013-02-27 21:42:00,
2013-02-27 15:44:00,31.8,27.2,29.68,NNW,335,6.1,8.1,83,0.02,RA,,0.08,WeatherDisplay:10.37,2013-02-27 21:44:00,
2013-02-27 15:46:00,31.7,27.1,29.68,North,360,2.1,8.5,83,0.02,RA,,0.08,WeatherDisplay:10.37,2013-02-27 21:46:00,
2013-02-27 15:47:00,31.7,27.1,29.68,NW,326,5.7,9.2,83,0.02,RA,,0.08,WeatherDisplay:10.37,2013-02-27 21:47:00,
2013-02-27 15:49:00,31.7,27.4,29.68,North,0,5.4,10.4,84,0.02,,,0.08,WeatherDisplay:10.37,2013-02-27 21:49:00,
2013-02-27 15:51:00,31.6,27.3,29.68,NW,308,3.6,8.5,84,0.02,CLR,,0.08,WeatherDisplay:10.37,2013-02-27 21:51:00,
2013-02-27 15:52:00,31.6,27.3,29.68,NE,56,3.8,8.1,84,0.02,CLR,,0.08,WeatherDisplay:10.37,2013-02-27 21:52:00,
2013-02-27 15:54:00,31.6,27.3,29.68,NNW,344,5.8,10.4,84,0.02,CLR,,0.08,WeatherDisplay:10.37,2013-02-27 21:54:00,
2013-02-27 15:55:00,31.5,27.2,29.68,NE,54,6.7,8.1,84,0.02,CLR,,0.08,WeatherDisplay:10.37,2013-02-27 21:55:00,
2013-02-27 15:56:00,31.5,27.2,29.68,NNE,13,5.3,10.4,84,0.02,CLR,,0.08,WeatherDisplay:10.37,2013-02-27 21:56:00,
2013-02-27 15:57:00,31.4,27.1,29.68,NNE,24,4.8,7.8,84,0.02,CLR,,0.08,WeatherDisplay:10.37,2013-02-27 21:57:00,
2013-02-27 15:59:00,31.5,27.2,29.68,NE,38,4.7,6.9,84,0.02,CLR,,0.08,WeatherDisplay:10.37,2013-02-27 21:59:00,
2013-02-27 16:00:00,31.4,27.1,29.68,North,8,3.3,6.9,84,0.02,CLR,,0.08,WeatherDisplay:10.37,2013-02-27 22:00:00,
2013-02-27 16:01:00,31.4,27.1,29.68,NNE,25,3.6,5.8,84,0.02,CLR,,0.08,WeatherDisplay:10.37,2013-02-27 22:01:00,
2013-02-27 16:02:00,31.4,27.1,29.68,NNW,346,2.9,5.8,84,0.01,CLR,,0.08,WeatherDisplay:10.37,2013-02-27 22:02:00,
2013-02-27 16:04:00,31.3,27.0,29.68,NNW,347,6.2,11.5,84,0.01,CLR,,0.08,WeatherDisplay:10.37,2013-02-27 22:04:00,
2013-02-27 16:05:00,31.3,27.0,29.68,NW,311,4.1,8.1,84,0.01,CLR,,0.08,WeatherDisplay:10.37,2013-02-27 22:05:00,
2013-02-27 16:06:00,31.3,27.0,29.68,NNE,27,4.8,8.1,84,0.01,CLR,,0.08,WeatherDisplay:10.37,2013-02-27 22:06:00,
2013-02-27 16:07:00,31.3,27.0,29.68,NNE,18,4.3,9.2,84,0.01,CLR,,0.08,WeatherDisplay:10.37,2013-02-27 22:07:00,
2013-02-27 16:09:00,31.3,27.0,29.68,North,352,5.8,8.1,84,0.01,CLR,,0.08,WeatherDisplay:10.37,2013-02-27 22:09:00,
2013-02-27 16:10:00,31.2,26.9,29.68,NNW,332,4.8,6.9,84,0.01,CLR,,0.08,WeatherDisplay:10.37,2013-02-27 22:10:00,
2013-02-27 16:11:00,31.1,26.8,29.68,NNE,27,3.8,6.9,84,0.01,CLR,,0.08,WeatherDisplay:10.37,2013-02-27 22:11:00,
2013-02-27 16:12:00,31.1,26.8,29.68,NNW,346,3.4,6.9,84,0.01,CLR,,0.08,WeatherDisplay:10.37,2013-02-27 22:12:00,
2013-02-27 16:14:00,31.1,26.8,29.68,NNE,18,3.9,6.9,84,0.01,CLR,,0.08,WeatherDisplay:10.37,2013-02-27 22:14:00,
2013-02-27 16:15:00,31.1,26.8,29.69,NNE,14,4.0,5.8,84,0.01,CLR,,0.08,WeatherDisplay:10.37,2013-02-27 22:15:00,
2013-02-27 16:16:00,31.0,26.7,29.69,North,360,3.6,5.8,84,0.01,CLR,,0.08,WeatherDisplay:10.37,2013-02-27 22:16:00,
2013-02-27 16:17:00,31.0,26.7,29.69,North,360,2.3,3.5,84,0.01,CLR,,0.08,WeatherDisplay:10.37,2013-02-27 22:17:00,
2013-02-27 16:19:00,31.0,26.7,29.69,NNE,18,3.3,5.7,84,0.01,CLR,,0.08,WeatherDisplay:10.37,2013-02-27 22:19:00,
2013-02-27 16:20:00,30.9,26.6,29.69,North,7,6.3,10.4,84,0.01,CLR,,0.08,WeatherDisplay:10.37,2013-02-27 22:20:00,
2013-02-27 16:21:00,30.9,26.6,29.69,NE,44,4.0,8.1,84,0.01,CLR,,0.08,WeatherDisplay:10.37,2013-02-27 22:21:00,
2013-02-27 16:22:00,30.9,26.6,29.69,East,92,4.4,8.1,84,0.01,CLR,,0.08,WeatherDisplay:10.37,2013-02-27 22:22:00,
2013-02-27 16:24:00,30.9,26.6,29.69,NNE,25,5.0,8.1,84,0.01,CLR,,0.08,WeatherDisplay:10.37,2013-02-27 22:24:00,
2013-02-27 16:25:00,30.9,26.6,29.69,North,4,5.4,8.1,84,0.01,CLR,,0.08,WeatherDisplay:10.37,2013-02-27 22:25:00,
2013-02-27 16:26:00,30.8,26.5,29.69,NNW,333,1.4,4.6,84,0.01,CLR,,0.08,WeatherDisplay:10.37,2013-02-27 22:26:00,
2013-02-27 16:28:00,30.9,26.6,29.69,NE,47,3.5,9.2,84,0.01,CLR,,0.08,WeatherDisplay:10.37,2013-02-27 22:28:00,
2013-02-27 16:29:00,30.8,26.5,29.69,NNW,346,3.9,8.1,84,0.01,CLR,,0.08,WeatherDisplay:10.37,2013-02-27 22:29:00,
2013-02-27 16:31:00,30.8,26.5,29.69,NNW,339,4.7,8.1,84,0.01,CLR,,0.08,WeatherDisplay:10.37,2013-02-27 22:31:00,
2013-02-27 16:32:00,30.8,26.8,29.69,NNE,23,4.5,6.9,85,0.01,CLR,,0.08,WeatherDisplay:10.37,2013-02-27 22:32:00,
2013-02-27 16:33:00,30.8,26.8,29.69,NNW,339,4.1,6.9,85,0.01,CLR,,0.08,WeatherDisplay:10.37,2013-02-27 22:33:00,
2013-02-27 16:34:00,30.8,26.8,29.69,NW,322,3.8,6.9,85,0.01,CLR,,0.08,WeatherDisplay:10.37,2013-02-27 22:34:00,
2013-02-27 16:36:00,30.8,26.8,29.69,North,360,4.4,8.1,85,0.01,CLR,,0.08,WeatherDisplay:10.37,2013-02-27 22:36:00,
2013-02-27 16:37:00,30.9,26.9,29.69,North,360,4.3,8.1,85,0.01,CLR,,0.08,WeatherDisplay:10.37,2013-02-27 22:37:00,
2013-02-27 16:38:00,30.7,26.7,29.69,NW,326,3.5,6.9,85,0.00,CLR,,0.08,WeatherDisplay:10.37,2013-02-27 22:38:00,
2013-02-27 16:39:00,30.8,26.8,29.69,NW,306,4.2,6.9,85,0.00,CLR,,0.08,WeatherDisplay:10.37,2013-02-27 22:39:00,
2013-02-27 16:41:00,30.8,26.8,29.69,North,1,3.7,6.3,85,0.00,CLR,,0.08,WeatherDisplay:10.37,2013-02-27 22:41:00,
2013-02-27 16:42:00,30.8,26.8,29.69,North,11,3.8,5.8,85,0.00,CLR,,0.08,WeatherDisplay:10.37,2013-02-27 22:42:00,
2013-02-27 16:43:00,30.8,26.8,29.69,NNW,330,2.8,6.9,85,0.00,CLR,,0.08,WeatherDisplay:10.37,2013-02-27 22:43:00,
2013-02-27 16:45:00,30.8,26.8,29.69,NNW,335,3.6,8.1,85,0.00,CLR,,0.08,WeatherDisplay:10.37,2013-02-27 22:45:00,
2013-02-27 16:46:00,30.8,26.8,29.70,WNW,299,3.1,5.8,85,0.00,CLR,,0.08,WeatherDisplay:10.37,2013-02-27 22:46:00,
2013-02-27 16:47:00,30.8,26.8,29.70,NNW,346,3.8,5.8,85,0.00,CLR,,0.08,WeatherDisplay:10.37,2013-02-27 22:47:00,
2013-02-27 16:48:00,30.8,26.8,29.70,NE,48,4.4,9.2,85,0.00,CLR,,0.08,WeatherDisplay:10.37,2013-02-27 22:48:00,
2013-02-27 16:50:00,30.8,26.8,29.70,NNW,343,3.4,5.4,85,0.00,CLR,,0.08,WeatherDisplay:10.37,2013-02-27 22:50:00,
2013-02-27 16:52:00,30.8,26.8,29.70,North,353,3.6,8.8,85,0.00,CLR,,0.08,WeatherDisplay:10.37,2013-02-27 22:52:00,
2013-02-27 16:53:00,30.8,26.8,29.70,North,3,4.8,9.2,85,0.00,CLR,,0.08,WeatherDisplay:10.37,2013-02-27 22:53:00,
2013-02-27 16:55:00,30.8,26.8,29.70,NNW,337,1.3,5.8,85,0.00,CLR,,0.08,WeatherDisplay:10.37,2013-02-27 22:55:00,
2013-02-27 16:57:00,30.8,26.8,29.70,North,0,0.8,4.6,85,0.00,CLR,,0.08,WeatherDisplay:10.37,2013-02-27 22:57:00,
2013-02-27 16:59:00,30.8,26.8,29.70,NNW,343,2.3,4.6,85,0.00,CLR,,0.08,WeatherDisplay:10.37,2013-02-27 22:59:00,
2013-02-27 17:00:00,30.8,26.8,29.70,NNW,339,4.6,8.1,85,0.00,CLR,,0.08,WeatherDisplay:10.37,2013-02-27 23:00:00,
2013-02-27 17:02:00,30.7,26.7,29.70,West,261,1.5,4.6,85,0.00,CLR,,0.08,WeatherDisplay:10.37,2013-02-27 23:02:00,
2013-02-27 17:04:00,30.9,26.9,29.70,NNW,337,3.1,5.5,85,0.00,CLR,,0.08,WeatherDisplay:10.37,2013-02-27 23:04:00,
2013-02-27 17:05:00,30.8,26.8,29.70,North,3,3.6,5.8,85,0.00,CLR,,0.08,WeatherDisplay:10.37,2013-02-27 23:05:00,
2013-02-27 17:07:00,30.7,26.7,29.70,North,354,3.2,4.6,85,0.00,CLR,,0.08,WeatherDisplay:10.37,2013-02-27 23:07:00,
2013-02-27 17:09:00,30.7,26.7,29.70,NNE,28,4.8,6.9,85,0.00,CLR,,0.08,WeatherDisplay:10.37,2013-02-27 23:09:00,
2013-02-27 17:10:00,30.7,26.7,29.70,NNE,23,3.5,6.9,85,0.00,CLR,,0.08,WeatherDisplay:10.37,2013-02-27 23:10:00,
2013-02-27 17:12:00,30.7,26.7,29.70,NNW,339,3.1,4.8,85,0.00,CLR,,0.08,WeatherDisplay:10.37,2013-02-27 23:12:00,
2013-02-27 17:14:00,30.6,26.6,29.70,NNE,25,1.0,6.9,85,0.00,CLR,,0.08,WeatherDisplay:10.37,2013-02-27 23:14:00,
2013-02-27 17:15:00,30.6,26.6,29.70,WNW,295,1.3,3.5,85,0.00,CLR,,0.08,WeatherDisplay:10.37,2013-02-27 23:15:00,
2013-02-27 17:17:00,30.6,26.6,29.70,NE,35,3.9,3.9,85,0.00,CLR,,0.08,WeatherDisplay:10.37,2013-02-27 23:17:00,
2013-02-27 17:18:00,30.6,26.6,29.70,NNW,339,2.5,6.9,85,0.00,CLR,,0.08,WeatherDisplay:10.37,2013-02-27 23:18:00,
2013-02-27 17:19:00,30.6,26.6,29.70,East,82,1.7,4.9,85,0.00,CLR,,0.08,WeatherDisplay:10.37,2013-02-27 23:19:00,
2013-02-27 17:20:00,30.5,26.5,29.70,NW,325,3.7,4.6,85,0.00,CLR,,0.08,WeatherDisplay:10.37,2013-02-27 23:20:00,
2013-02-27 17:22:00,30.5,26.5,29.70,North,359,4.2,6.9,85,0.00,CLR,,0.08,WeatherDisplay:10.37,2013-02-27 23:22:00,
2013-02-27 17:23:00,30.6,26.6,29.70,North,352,5.0,6.9,85,0.00,CLR,,0.08,WeatherDisplay:10.37,2013-02-27 23:23:00,
2013-02-27 17:24:00,30.5,26.5,29.70,NNW,346,4.6,6.9,85,0.00,CLR,,0.08,WeatherDisplay:10.37,2013-02-27 23:24:00,
2013-02-27 17:25:00,30.5,26.5,29.71,WNW,296,3.1,8.1,85,0.00,CLR,,0.08,WeatherDisplay:10.37,2013-02-27 23:25:00,
2013-02-27 17:27:00,30.5,26.5,29.71,NE,37,2.3,5.8,85,0.00,CLR,,0.08,WeatherDisplay:10.37,2013-02-27 23:27:00,
2013-02-27 17:28:00,30.5,26.5,29.71,NW,312,1.9,3.5,85,0.00,CLR,,0.08,WeatherDisplay:10.37,2013-02-27 23:28:00,
2013-02-27 17:29:00,30.5,26.5,29.71,NNE,21,2.7,3.5,85,0.00,CLR,,0.08,WeatherDisplay:10.37,2013-02-27 23:29:00,
2013-02-27 17:30:00,30.5,26.5,29.71,East,85,4.5,6.9,85,0.00,CLR,,0.08,WeatherDisplay:10.37,2013-02-27 23:30:00,
2013-02-27 17:32:00,30.5,26.5,29.71,NE,41,3.2,5.8,85,0.00,CLR,,0.08,WeatherDisplay:10.37,2013-02-27 23:32:00,
2013-02-27 17:33:00,30.5,26.5,29.71,NNE,16,3.2,5.8,85,0.00,CLR,,0.08,WeatherDisplay:10.37,2013-02-27 23:33:00,
2013-02-27 17:34:00,30.5,26.5,29.71,ESE,123,2.0,5.8,85,0.00,CLR,,0.08,WeatherDisplay:10.37,2013-02-27 23:34:00,
2013-02-27 17:35:00,30.5,26.5,29.71,North,11,2.0,4.6,85,0.00,CLR,,0.08,WeatherDisplay:10.37,2013-02-27 23:35:00,
2013-02-27 17:38:00,30.5,26.5,29.71,North,360,2.9,4.6,85,0.00,CLR,,0.08,WeatherDisplay:10.37,2013-02-27 23:38:00,
2013-02-27 17:39:00,30.5,26.5,29.71,NNE,27,3.7,8.1,85,0.00,CLR,,0.08,WeatherDisplay:10.37,2013-02-27 23:39:00,
2013-02-27 17:40:00,30.5,26.5,29.71,NNW,346,1.9,5.8,85,0.00,CLR,,0.08,WeatherDisplay:10.37,2013-02-27 23:40:00,
2013-02-27 17:43:00,30.5,26.5,29.71,ENE,58,3.2,6.9,85,0.00,CLR,,0.08,WeatherDisplay:10.37,2013-02-27 23:43:00,
2013-02-27 17:45:00,30.5,26.5,29.71,NNW,342,5.0,9.2,85,0.00,CLR,,0.08,WeatherDisplay:10.37,2013-02-27 23:45:00,
2013-02-27 17:46:00,30.5,26.5,29.71,NW,305,0.6,6.9,85,0.00,CLR,,0.08,WeatherDisplay:10.37,2013-02-27 23:46:00,
2013-02-27 17:48:00,30.5,26.5,29.71,North,356,3.7,5.8,85,0.00,CLR,,0.08,WeatherDisplay:10.37,2013-02-27 23:48:00,
2013-02-27 17:50:00,30.4,26.4,29.71,North,360,6.0,6.1,85,0.00,CLR,,0.08,WeatherDisplay:10.37,2013-02-27 23:50:00,
2013-02-27 17:51:00,30.5,26.5,29.71,NE,49,4.5,8.1,85,0.00,CLR,,0.08,WeatherDisplay:10.37,2013-02-27 23:51:00,
2013-02-27 17:53:00,30.4,26.4,29.71,NNW,346,2.7,5.0,85,0.00,CLR,,0.08,WeatherDisplay:10.37,2013-02-27 23:53:00,
2013-02-27 17:55:00,30.4,26.4,29.71,North,6,3.2,6.9,85,0.00,CLR,,0.08,WeatherDisplay:10.37,2013-02-27 23:55:00,
2013-02-27 17:56:00,30.4,26.4,29.71,ENE,75,2.2,5.8,85,0.00,CLR,,0.08,WeatherDisplay:10.37,2013-02-27 23:56:00,
2013-02-27 17:58:00,30.4,26.4,29.71,NW,311,4.7,5.8,85,0.00,CLR,,0.08,WeatherDisplay:10.37,2013-02-27 23:58:00,
2013-02-27 17:59:00,30.4,26.4,29.71,NNE,32,4.0,6.9,85,0.00,CLR,,0.08,WeatherDisplay:10.37,2013-02-27 23:59:00,
2013-02-27 18:00:00,30.4,26.4,29.71,North,7,4.9,8.1,85,0.00,CLR,,0.08,WeatherDisplay:10.37,2013-02-28 00:00:00,
2013-02-27 18:01:00,30.3,26.3,29.71,NNE,16,4.7,8.1,85,0.00,CLR,,0.08,WeatherDisplay:10.37,2013-02-28 00:01:00,
2013-02-27 18:03:00,30.3,26.3,29.71,North,8,2.4,9.2,85,0.00,CLR,,0.08,WeatherDisplay:10.37,2013-02-28 00:03:00,
2013-02-27 18:04:00,30.3,26.3,29.71,North,356,2.6,9.2,85,0.00,CLR,,0.08,WeatherDisplay:10.37,2013-02-28 00:04:00,
2013-02-27 18:06:00,30.3,26.3,29.71,NE,37,3.2,7.0,85,0.00,CLR,,0.08,WeatherDisplay:10.37,2013-02-28 00:06:00,
2013-02-27 18:08:00,30.3,26.3,29.71,North,360,5.2,8.1,85,0.00,CLR,,0.08,WeatherDisplay:10.37,2013-02-28 00:08:00,
2013-02-27 18:09:00,30.3,26.3,29.71,NNE,23,4.0,8.1,85,0.00,CLR,,0.08,WeatherDisplay:10.37,2013-02-28 00:09:00,
2013-02-27 18:11:00,30.3,26.3,29.71,NE,56,3.7,9.2,85,0.00,CLR,,0.08,WeatherDisplay:10.37,2013-02-28 00:11:00,
2013-02-27 18:14:00,30.2,26.2,29.71,North,360,3.5,8.1,85,0.00,CLR,,0.08,WeatherDisplay:10.37,2013-02-28 00:14:00,
2013-02-27 18:16:00,30.3,26.3,29.72,North,1,4.8,9.2,85,0.00,CLR,,0.08,WeatherDisplay:10.37,2013-02-28 00:16:00,
2013-02-27 18:19:00,30.2,26.2,29.72,NNE,14,4.3,6.9,85,0.00,CLR,,0.08,WeatherDisplay:10.37,2013-02-28 00:19:00,
2013-02-27 18:21:00,30.3,26.6,29.72,NNW,335,5.2,7.9,86,0.00,CLR,,0.08,WeatherDisplay:10.37,2013-02-28 00:21:00,
2013-02-27 18:24:00,30.2,26.5,29.72,NNW,328,3.4,6.9,86,0.00,CLR,,0.08,WeatherDisplay:10.37,2013-02-28 00:24:00,
2013-02-27 18:26:00,30.2,26.5,29.72,North,10,2.3,4.6,86,0.00,CLR,,0.08,WeatherDisplay:10.37,2013-02-28 00:26:00,
2013-02-27 18:29:00,30.2,26.5,29.72,NNW,347,2.2,3.5,86,0.00,CLR,,0.08,WeatherDisplay:10.37,2013-02-28 00:29:00,
2013-02-27 18:31:00,30.2,26.5,29.72,North,3,0.8,4.6,86,0.00,CLR,,0.08,WeatherDisplay:10.37,2013-02-28 00:31:00,
2013-02-27 18:34:00,30.2,26.5,29.72,NW,311,1.7,4.6,86,0.00,CLR,,0.08,WeatherDisplay:10.37,2013-02-28 00:34:00,
2013-02-27 18:36:00,30.2,26.5,29.73,NW,311,0.0,1.1,86,0.00,CLR,,0.08,WeatherDisplay:10.37,2013-02-28 00:36:00,
2013-02-27 18:39:00,30.2,26.5,29.73,NW,323,1.6,3.5,86,0.00,CLR,,0.08,WeatherDisplay:10.37,2013-02-28 00:39:00,
2013-02-27 18:40:00,30.2,26.5,29.73,NW,323,0.1,3.5,86,0.00,CLR,,0.08,WeatherDisplay:10.37,2013-02-28 00:40:00,
2013-02-27 18:41:00,30.2,26.5,29.73,NW,315,4.2,5.8,86,0.00,CLR,,0.08,WeatherDisplay:10.37,2013-02-28 00:41:00,
2013-02-27 18:42:00,30.2,26.5,29.73,WNW,302,3.1,6.9,86,0.00,CLR,,0.08,WeatherDisplay:10.37,2013-02-28 00:42:00,
2013-02-27 18:45:00,30.2,26.5,29.73,WNW,302,3.4,4.6,86,0.00,CLR,,0.08,WeatherDisplay:10.37,2013-02-28 00:45:00,
2013-02-27 18:46:00,30.2,26.5,29.73,WNW,287,1.7,5.8,86,0.00,CLR,,0.08,WeatherDisplay:10.37,2013-02-28 00:46:00,
2013-02-27 18:47:00,30.2,26.5,29.73,WNW,287,0.1,3.5,86,0.00,CLR,,0.08,WeatherDisplay:10.37,2013-02-28 00:47:00,
2013-02-27 18:50:00,30.1,26.4,29.73,WNW,289,3.3,5.8,86,0.00,CLR,,0.08,WeatherDisplay:10.37,2013-02-28 00:50:00,
2013-02-27 18:51:00,30.1,26.4,29.73,North,0,1.5,4.6,86,0.00,CLR,,0.08,WeatherDisplay:10.37,2013-02-28 00:51:00,
2013-02-27 18:52:00,30.1,26.4,29.73,NNW,336,3.8,6.2,86,0.00,CLR,,0.08,WeatherDisplay:10.37,2013-02-28 00:52:00,
2013-02-27 18:55:00,30.2,26.5,29.73,North,353,3.5,7.1,86,0.00,CLR,,0.08,WeatherDisplay:10.37,2013-02-28 00:55:00,
2013-02-27 18:56:00,30.1,26.4,29.73,North,1,4.7,6.9,86,0.00,CLR,,0.08,WeatherDisplay:10.37,2013-02-28 00:56:00,
2013-02-27 18:57:00,30.1,26.4,29.73,NNW,335,4.6,6.9,86,0.00,CLR,,0.08,WeatherDisplay:10.37,2013-02-28 00:57:00,
2013-02-27 19:00:00,30.2,26.5,29.73,NE,51,5.1,8.1,86,0.00,CLR,,0.08,WeatherDisplay:10.37,2013-02-28 01:00:00,
2013-02-27 19:01:00,30.1,26.4,29.73,NNW,332,4.9,8.1,86,0.00,CLR,,0.08,WeatherDisplay:10.37,2013-02-28 01:01:00,
2013-02-27 19:02:00,30.1,26.4,29.73,North,360,4.6,8.1,86,0.00,CLR,,0.08,WeatherDisplay:10.37,2013-02-28 01:02:00,
2013-02-27 19:05:00,30.2,26.5,29.73,NE,49,0.0,0.0,86,0.00,CLR,,0.08,WeatherDisplay:10.37,2013-02-28 01:05:00,
2013-02-27 19:06:00,30.1,26.4,29.73,NNW,344,4.2,8.1,86,0.00,CLR,,0.08,WeatherDisplay:10.37,2013-02-28 01:06:00,
2013-02-27 19:07:00,30.1,26.4,29.73,North,1,5.0,8.1,86,0.00,CLR,,0.08,WeatherDisplay:10.37,2013-02-28 01:07:00,
2013-02-27 19:10:00,30.2,26.5,29.73,WNW,289,4.1,10.4,86,0.00,CLR,,0.08,WeatherDisplay:10.37,2013-02-28 01:10:00,
2013-02-27 19:11:00,30.1,26.4,29.73,NNW,335,1.7,4.5,86,0.00,CLR,,0.08,WeatherDisplay:10.37,2013-02-28 01:11:00,
2013-02-27 19:12:00,30.1,26.4,29.73,NW,316,4.9,8.1,86,0.00,CLR,,0.08,WeatherDisplay:10.37,2013-02-28 01:12:00,
2013-02-27 19:15:00,30.2,26.5,29.73,NNW,329,2.4,5.8,86,0.00,CLR,,0.08,WeatherDisplay:10.37,2013-02-28 01:15:00,
2013-02-27 19:16:00,30.2,26.5,29.73,NNW,335,4.1,5.8,86,0.00,CLR,,0.08,WeatherDisplay:10.37,2013-02-28 01:16:00,
2013-02-27 19:17:00,30.2,26.5,29.73,NNW,328,5.4,9.2,86,0.00,CLR,,0.08,WeatherDisplay:10.37,2013-02-28 01:17:00,
2013-02-27 19:20:00,30.2,26.5,29.73,NNE,23,3.0,10.4,86,0.00,CLR,,0.08,WeatherDisplay:10.37,2013-02-28 01:20:00,
2013-02-27 19:21:00,30.3,26.6,29.73,West,274,3.9,10.4,86,0.00,CLR,,0.08,WeatherDisplay:10.37,2013-02-28 01:21:00,
2013-02-27 19:22:00,30.2,26.5,29.73,NNW,339,1.9,8.1,86,0.00,CLR,,0.08,WeatherDisplay:10.37,2013-02-28 01:22:00,
2013-02-27 19:25:00,30.2,26.5,29.73,North,360,5.5,10.4,86,0.00,CLR,,0.08,WeatherDisplay:10.37,2013-02-28 01:25:00,
2013-02-27 19:26:00,30.2,26.5,29.73,North,360,3.4,10.4,86,0.00,CLR,,0.08,WeatherDisplay:10.37,2013-02-28 01:26:00,
2013-02-27 19:27:00,30.3,26.6,29.73,NNW,347,5.5,9.2,86,0.00,CLR,,0.08,WeatherDisplay:10.37,2013-02-28 01:27:00,
2013-02-27 19:31:00,30.3,26.6,29.73,NNW,344,4.6,9.3,86,0.00,CLR,,0.08,WeatherDisplay:10.37,2013-02-28 01:31:00,
2013-02-27 19:32:00,30.3,26.6,29.73,East,83,4.3,9.2,86,0.00,CLR,,0.08,WeatherDisplay:10.37,2013-02-28 01:32:00,
2013-02-27 19:33:00,30.3,26.6,29.73,NNE,17,2.5,9.3,86,0.00,CLR,,0.08,WeatherDisplay:10.37,2013-02-28 01:33:00,
2013-02-27 19:36:00,30.3,26.6,29.73,NW,311,6.3,8.1,86,0.00,CLR,,0.08,WeatherDisplay:10.37,2013-02-28 01:36:00,
2013-02-27 19:37:00,30.3,26.6,29.73,North,0,4.4,8.7,86,0.00,CLR,,0.08,WeatherDisplay:10.37,2013-02-28 01:37:00,
2013-02-27 19:38:00,30.3,26.6,29.73,NNW,339,7.1,9.2,86,0.00,CLR,,0.08,WeatherDisplay:10.37,2013-02-28 01:38:00,
2013-02-27 19:41:00,30.2,26.5,29.73,North,360,5.5,9.3,86,0.00,CLR,,0.08,WeatherDisplay:10.37,2013-02-28 01:41:00,
2013-02-27 19:42:00,30.2,26.5,29.73,WNW,292,3.2,9.2,86,0.00,CLR,,0.08,WeatherDisplay:10.37,2013-02-28 01:42:00,
2013-02-27 19:43:00,30.2,26.5,29.73,North,3,2.3,4.6,86,0.00,CLR,,0.08,WeatherDisplay:10.37,2013-02-28 01:43:00,
2013-02-27 19:46:00,30.3,26.6,29.73,NNW,330,3.8,6.9,86,0.00,CLR,,0.08,WeatherDisplay:10.37,2013-02-28 01:46:00,
2013-02-27 19:47:00,30.2,26.5,29.74,NNW,328,1.2,3.5,86,0.00,CLR,,0.08,WeatherDisplay:10.37,2013-02-28 01:47:00,
2013-02-27 19:48:00,30.2,26.5,29.74,NW,320,3.0,3.5,86,0.00,CLR,,0.08,WeatherDisplay:10.37,2013-02-28 01:48:00,
2013-02-27 19:51:00,30.2,26.5,29.74,NW,323,2.3,4.6,86,0.00,CLR,,0.08,WeatherDisplay:10.37,2013-02-28 01:51:00,
2013-02-27 19:52:00,30.2,26.5,29.74,North,353,6.4,11.5,86,0.00,CLR,,0.08,WeatherDisplay:10.37,2013-02-28 01:52:00,
2013-02-27 19:53:00,30.2,26.5,29.74,NNW,329,4.3,11.5,86,0.00,CLR,,0.08,WeatherDisplay:10.37,2013-02-28 01:53:00,
2013-02-27 19:56:00,30.2,26.5,29.74,North,350,5.5,8.1,86,0.00,CLR,,0.08,WeatherDisplay:10.37,2013-02-28 01:56:00,
2013-02-27 19:57:00,30.2,26.5,29.74,NNW,337,5.4,8.1,86,0.00,CLR,,0.08,WeatherDisplay:10.37,2013-02-28 01:57:00,
2013-02-27 19:58:00,30.2,26.5,29.74,WNW,291,5.6,6.9,86,0.00,CLR,,0.08,WeatherDisplay:10.37,2013-02-28 01:58:00,
2013-02-27 20:01:00,30.1,26.4,29.74,North,10,2.2,9.2,86,0.00,CLR,,0.08,WeatherDisplay:10.37,2013-02-28 02:01:00,
2013-02-27 20:02:00,30.1,26.4,29.74,North,8,2.8,9.2,86,0.00,CLR,,0.08,WeatherDisplay:10.37,2013-02-28 02:02:00,
2013-02-27 20:03:00,30.2,26.5,29.74,NNW,339,4.9,6.9,86,0.00,CLR,,0.08,WeatherDisplay:10.37,2013-02-28 02:03:00,
2013-02-27 20:06:00,30.1,26.7,29.74,NNE,30,5.1,8.1,87,0.00,CLR,,0.08,WeatherDisplay:10.37,2013-02-28 02:06:00,
2013-02-27 20:07:00,30.1,26.7,29.74,North,1,4.4,8.1,87,0.00,CLR,,0.08,WeatherDisplay:10.37,2013-02-28 02:07:00,
2013-02-27 20:08:00,30.2,26.8,29.74,West,274,2.8,6.9,87,0.00,CLR,,0.08,WeatherDisplay:10.37,2013-02-28 02:08:00,
2013-02-27 20:11:00,30.1,26.7,29.74,NNE,20,5.8,11.5,87,0.00,CLR,,0.08,WeatherDisplay:10.37,2013-02-28 02:11:00,
2013-02-27 20:12:00,30.1,26.7,29.74,NNE,13,5.7,11.5,87,0.00,CLR,,0.08,WeatherDisplay:10.37,2013-02-28 02:12:00,
2013-02-27 20:13:00,30.2,26.8,29.74,NNE,16,5.4,11.5,87,0.00,CLR,,0.08,WeatherDisplay:10.37,2013-02-28 02:13:00,
2013-02-27 20:16:00,30.1,26.7,29.75,North,352,4.2,8.1,87,0.00,CLR,,0.08,WeatherDisplay:10.37,2013-02-28 02:16:00,
2013-02-27 20:18:00,30.1,26.7,29.74,NNW,336,3.7,8.1,87,0.00,CLR,,0.08,WeatherDisplay:10.37,2013-02-28 02:18:00,
2013-02-27 20:22:00,30.1,26.7,29.74,NW,320,3.6,6.9,87,0.00,CLR,,0.08,WeatherDisplay:10.37,2013-02-28 02:22:00,
2013-02-27 20:23:00,30.1,26.7,29.75,NNW,347,5.7,9.2,87,0.00,CLR,,0.08,WeatherDisplay:10.37,2013-02-28 02:23:00,
2013-02-27 20:27:00,30.1,26.7,29.74,NNE,32,3.0,5.8,87,0.00,CLR,,0.08,WeatherDisplay:10.37,2013-02-28 02:27:00,
2013-02-27 20:28:00,30.1,26.7,29.75,North,353,5.8,7.6,87,0.00,CLR,,0.08,WeatherDisplay:10.37,2013-02-28 02:28:00,
2013-02-27 20:32:00,30.1,26.7,29.75,NNW,329,5.8,10.3,87,0.00,CLR,,0.08,WeatherDisplay:10.37,2013-02-28 02:32:00,
2013-02-27 20:33:00,30.1,26.7,29.75,NNE,20,4.5,10.4,87,0.00,CLR,,0.08,WeatherDisplay:10.37,2013-02-28 02:33:00,
2013-02-27 20:37:00,30.1,26.7,29.75,North,360,4.8,9.2,87,0.00,CLR,,0.08,WeatherDisplay:10.37,2013-02-28 02:37:00,
2013-02-27 20:38:00,30.1,26.7,29.75,NNW,344,3.6,6.9,87,0.00,CLR,,0.08,WeatherDisplay:10.37,2013-02-28 02:38:00,
2013-02-27 20:39:00,30.1,26.7,29.75,NNE,17,4.4,5.8,87,0.00,CLR,,0.08,WeatherDisplay:10.37,2013-02-28 02:39:00,
2013-02-27 20:42:00,30.1,26.7,29.75,NNW,329,1.1,7.3,87,0.00,CLR,,0.08,WeatherDisplay:10.37,2013-02-28 02:42:00,
2013-02-27 20:43:00,30.1,26.7,29.75,North,1,3.6,8.1,87,0.00,CLR,,0.08,WeatherDisplay:10.37,2013-02-28 02:43:00,
2013-02-27 20:44:00,30.1,26.7,29.75,North,10,4.2,6.9,87,0.00,CLR,,0.08,WeatherDisplay:10.37,2013-02-28 02:44:00,
2013-02-27 20:47:00,30.2,26.8,29.75,North,360,3.7,8.1,87,0.00,CLR,,0.08,WeatherDisplay:10.37,2013-02-28 02:47:00,
2013-02-27 20:48:00,30.1,26.7,29.75,NNW,336,3.3,9.2,87,0.00,CLR,,0.08,WeatherDisplay:10.37,2013-02-28 02:48:00,
2013-02-27 20:49:00,30.2,26.8,29.75,NNE,32,3.8,9.2,87,0.00,CLR,,0.08,WeatherDisplay:10.37,2013-02-28 02:49:00,
2013-02-27 20:52:00,30.2,26.8,29.75,NE,37,5.8,8.1,87,0.00,CLR,,0.08,WeatherDisplay:10.37,2013-02-28 02:52:00,
2013-02-27 20:53:00,30.2,26.8,29.75,North,360,6.7,11.5,87,0.00,CLR,,0.08,WeatherDisplay:10.37,2013-02-28 02:53:00,
2013-02-27 20:54:00,30.1,26.7,29.75,NNE,25,5.6,11.5,87,0.00,CLR,,0.08,WeatherDisplay:10.37,2013-02-28 02:54:00,
2013-02-27 20:57:00,30.2,26.8,29.75,NNE,32,4.9,9.2,87,0.00,CLR,,0.08,WeatherDisplay:10.37,2013-02-28 02:57:00,
2013-02-27 20:59:00,30.2,26.8,29.75,NW,311,4.9,6.9,87,0.00,CLR,,0.08,WeatherDisplay:10.37,2013-02-28 02:59:00,
2013-02-27 21:03:00,30.1,26.7,29.75,NNE,30,5.7,9.6,87,0.00,CLR,,0.08,WeatherDisplay:10.37,2013-02-28 03:03:00,
2013-02-27 21:04:00,30.1,26.7,29.75,NW,318,6.9,9.2,87,0.00,CLR,,0.08,WeatherDisplay:10.37,2013-02-28 03:04:00,
2013-02-27 21:08:00,30.1,26.7,29.75,NNE,13,3.5,6.9,87,0.00,CLR,,0.08,WeatherDisplay:10.37,2013-02-28 03:08:00,
2013-02-27 21:09:00,30.1,26.7,29.75,North,360,2.9,6.2,87,0.00,CLR,,0.08,WeatherDisplay:10.37,2013-02-28 03:09:00,
2013-02-27 21:13:00,30.2,26.8,29.75,North,4,4.7,9.2,87,0.00,CLR,,0.08,WeatherDisplay:10.37,2013-02-28 03:13:00,
2013-02-27 21:14:00,30.1,26.7,29.75,North,357,5.3,6.8,87,0.00,CLR,,0.08,WeatherDisplay:10.37,2013-02-28 03:14:00,
2013-02-27 21:18:00,30.1,26.7,29.75,WNW,291,2.5,6.9,87,0.00,CLR,,0.08,WeatherDisplay:10.37,2013-02-28 03:18:00,
2013-02-27 21:19:00,30.1,26.7,29.75,NNE,20,2.1,8.6,87,0.00,CLR,,0.08,WeatherDisplay:10.37,2013-02-28 03:19:00,
2013-02-27 21:23:00,30.2,26.8,29.75,NNE,31,7.0,10.9,87,0.00,CLR,,0.08,WeatherDisplay:10.37,2013-02-28 03:23:00,
2013-02-27 21:24:00,30.2,26.8,29.75,NNE,32,4.5,10.4,87,0.00,CLR,,0.08,WeatherDisplay:10.37,2013-02-28 03:24:00,
2013-02-27 21:28:00,30.2,26.8,29.75,WNW,298,5.0,5.8,87,0.00,CLR,,0.08,WeatherDisplay:10.37,2013-02-28 03:28:00,
2013-02-27 21:29:00,30.2,26.8,29.75,NNE,18,3.0,8.1,87,0.00,CLR,,0.08,WeatherDisplay:10.37,2013-02-28 03:29:00,
2013-02-27 21:30:00,30.2,26.8,29.75,NNW,346,3.0,5.8,87,0.00,CLR,,0.08,WeatherDisplay:10.37,2013-02-28 03:30:00,
2013-02-27 21:34:00,30.2,26.8,29.75,NNW,344,6.2,10.4,87,0.00,CLR,,0.08,WeatherDisplay:10.37,2013-02-28 03:34:00,
2013-02-27 21:35:00,30.2,26.8,29.75,NE,48,6.6,10.0,87,0.00,CLR,,0.08,WeatherDisplay:10.37,2013-02-28 03:35:00,
2013-02-27 21:39:00,30.2,26.8,29.75,NNE,23,3.7,6.9,87,0.00,CLR,,0.08,WeatherDisplay:10.37,2013-02-28 03:39:00,
2013-02-27 21:40:00,30.2,26.8,29.75,NW,312,4.8,10.0,87,0.00,CLR,,0.08,WeatherDisplay:10.37,2013-02-28 03:40:00,
2013-02-27 21:44:00,30.2,26.8,29.75,North,360,6.9,8.1,87,0.00,CLR,,0.08,WeatherDisplay:10.37,2013-02-28 03:44:00,
2013-02-27 21:45:00,30.2,26.8,29.75,North,3,7.2,11.5,87,0.00,CLR,,0.08,WeatherDisplay:10.37,2013-02-28 03:45:00,
2013-02-27 21:49:00,30.2,26.8,29.75,North,360,5.9,10.4,87,0.00,CLR,,0.08,WeatherDisplay:10.37,2013-02-28 03:49:00,
2013-02-27 21:50:00,30.2,26.8,29.75,NNW,329,5.8,8.1,87,0.00,CLR,,0.08,WeatherDisplay:10.37,2013-02-28 03:50:00,
2013-02-27 21:54:00,30.2,26.5,29.76,North,10,5.7,9.2,86,0.00,CLR,,0.08,WeatherDisplay:10.37,2013-02-28 03:54:00,
2013-02-27 21:55:00,30.3,26.6,29.76,ENE,66,3.0,6.9,86,0.00,CLR,,0.08,WeatherDisplay:10.37,2013-02-28 03:55:00,
2013-02-27 21:59:00,30.3,26.6,29.76,East,89,3.4,5.8,86,0.00,CLR,,0.08,WeatherDisplay:10.37,2013-02-28 03:59:00,
2013-02-27 22:00:00,30.3,26.6,29.76,NNE,17,3.9,11.9,86,0.00,CLR,,0.08,WeatherDisplay:10.37,2013-02-28 04:00:00,
2013-02-27 22:04:00,30.3,26.6,29.76,NNW,342,5.4,8.1,86,0.00,CLR,,0.08,WeatherDisplay:10.37,2013-02-28 04:04:00,
2013-02-27 22:05:00,30.3,26.6,29.76,NNW,337,4.9,9.2,86,0.00,CLR,,0.08,WeatherDisplay:10.37,2013-02-28 04:05:00,
2013-02-27 22:06:00,30.3,26.6,29.76,North,8,5.1,8.1,86,0.00,CLR,,0.08,WeatherDisplay:10.37,2013-02-28 04:06:00,
2013-02-27 22:09:00,30.3,26.6,29.76,NNE,30,4.3,7.6,86,0.00,CLR,,0.08,WeatherDisplay:10.37,2013-02-28 04:09:00,
2013-02-27 22:10:00,30.3,26.6,29.76,North,10,7.1,8.1,86,0.00,CLR,,0.08,WeatherDisplay:10.37,2013-02-28 04:10:00,
2013-02-27 22:11:00,30.3,26.6,29.76,NW,326,6.1,9.2,86,0.00,CLR,,0.08,WeatherDisplay:10.37,2013-02-28 04:11:00,
2013-02-27 22:14:00,30.3,26.6,29.76,NNE,28,6.2,10.4,86,0.00,CLR,,0.08,WeatherDisplay:10.37,2013-02-28 04:14:00,
2013-02-27 22:15:00,30.2,26.5,29.76,NNE,16,5.1,10.4,86,0.00,CLR,,0.08,WeatherDisplay:10.37,2013-02-28 04:15:00,
2013-02-27 22:16:00,30.3,26.6,29.76,NNW,332,5.1,10.6,86,0.00,CLR,,0.08,WeatherDisplay:10.37,2013-02-28 04:16:00,
2013-02-27 22:20:00,30.3,26.6,29.76,NNW,337,4.8,9.2,86,0.00,CLR,,0.08,WeatherDisplay:10.37,2013-02-28 04:20:00,
2013-02-27 22:21:00,30.3,26.6,29.76,NW,305,5.7,10.4,86,0.00,CLR,,0.08,WeatherDisplay:10.37,2013-02-28 04:21:00,
2013-02-27 22:25:00,30.2,26.5,29.76,NW,312,4.3,8.1,86,0.00,CLR,,0.08,WeatherDisplay:10.37,2013-02-28 04:25:00,
2013-02-27 22:26:00,30.2,26.5,29.76,NNW,347,4.4,5.8,86,0.00,CLR,,0.08,WeatherDisplay:10.37,2013-02-28 04:26:00,
2013-02-27 22:30:00,30.2,26.2,29.76,NW,315,4.8,9.2,85,0.00,CLR,,0.08,WeatherDisplay:10.37,2013-02-28 04:30:00,
2013-02-27 22:31:00,30.2,26.2,29.76,NNE,24,4.3,8.1,85,0.00,CLR,,0.08,WeatherDisplay:10.37,2013-02-28 04:31:00,
2013-02-27 22:35:00,30.2,26.2,29.76,North,352,6.9,11.5,85,0.00,CLR,,0.08,WeatherDisplay:10.37,2013-02-28 04:35:00,
2013-02-27 22:36:00,30.2,26.2,29.76,North,350,5.0,10.4,85,0.00,CLR,,0.08,WeatherDisplay:10.37,2013-02-28 04:36:00,
2013-02-27 22:37:00,30.2,26.2,29.76,ENE,58,5.1,10.4,85,0.00,CLR,,0.08,WeatherDisplay:10.37,2013-02-28 04:37:00,
2013-02-27 22:40:00,30.2,26.2,29.76,North,6,5.2,10.4,85,0.00,CLR,,0.08,WeatherDisplay:10.37,2013-02-28 04:40:00,
2013-02-27 22:42:00,30.2,26.2,29.76,NW,316,5.1,9.2,85,0.00,CLR,,0.08,WeatherDisplay:10.37,2013-02-28 04:42:00,
2013-02-27 22:45:00,30.2,26.2,29.76,NNW,332,6.3,10.4,85,0.00,CLR,,0.08,WeatherDisplay:10.37,2013-02-28 04:45:00,
2013-02-27 22:47:00,30.2,26.2,29.76,NW,325,7.3,12.7,85,0.00,CLR,,0.08,WeatherDisplay:10.37,2013-02-28 04:47:00,
2013-02-27 22:50:00,30.2,26.2,29.76,North,359,4.8,12.7,85,0.00,CLR,,0.08,WeatherDisplay:10.37,2013-02-28 04:50:00,
2013-02-27 22:52:00,30.1,26.1,29.77,North,353,5.9,10.4,85,0.00,CLR,,0.08,WeatherDisplay:10.37,2013-02-28 04:52:00,
2013-02-27 22:55:00,30.2,26.2,29.77,NNW,329,3.7,9.2,85,0.00,CLR,,0.08,WeatherDisplay:10.37,2013-02-28 04:55:00,
2013-02-27 22:57:00,30.1,26.1,29.77,NNW,332,7.0,10.2,85,0.00,CLR,,0.08,WeatherDisplay:10.37,2013-02-28 04:57:00,
2013-02-27 23:00:00,30.1,26.1,29.77,NNW,335,5.4,9.9,85,0.00,CLR,,0.08,WeatherDisplay:10.37,2013-02-28 05:00:00,
2013-02-27 23:05:00,30.1,26.1,29.77,NW,313,8.3,10.4,85,0.00,CLR,,0.08,WeatherDisplay:10.37,2013-02-28 05:05:00,
2013-02-27 23:10:00,30.0,26.0,29.77,WNW,301,5.5,9.2,85,0.00,CLR,,0.08,WeatherDisplay:10.37,2013-02-28 05:10:00,
2013-02-27 23:15:00,30.1,26.1,29.77,NNW,346,4.7,6.9,85,0.00,CLR,,0.08,WeatherDisplay:10.37,2013-02-28 05:15:00,
2013-02-27 23:16:00,30.0,26.0,29.77,North,352,4.9,6.9,85,0.00,CLR,,0.08,WeatherDisplay:10.37,2013-02-28 05:16:00,
2013-02-27 23:21:00,30.0,26.0,29.77,North,4,8.3,15.0,85,0.00,CLR,,0.08,WeatherDisplay:10.37,2013-02-28 05:21:00,
2013-02-27 23:22:00,30.0,26.0,29.77,NW,323,7.1,11.5,85,0.00,CLR,,0.08,WeatherDisplay:10.37,2013-02-28 05:22:00,
2013-02-27 23:26:00,30.0,26.0,29.77,North,360,4.8,11.5,85,0.00,CLR,,0.08,WeatherDisplay:10.37,2013-02-28 05:26:00,
2013-02-27 23:27:00,29.9,26.2,29.77,NNE,14,3.4,6.9,86,0.00,CLR,,0.08,WeatherDisplay:10.37,2013-02-28 05:27:00,
2013-02-27 23:31:00,29.9,26.2,29.77,North,356,7.7,10.4,86,0.00,CLR,,0.08,WeatherDisplay:10.37,2013-02-28 05:31:00,
2013-02-27 23:32:00,30.0,26.3,29.77,North,4,7.7,11.6,86,0.00,CLR,,0.08,WeatherDisplay:10.37,2013-02-28 05:32:00,
2013-02-27 23:36:00,30.0,26.3,29.77,NW,305,5.0,11.5,86,0.00,CLR,,0.08,WeatherDisplay:10.37,2013-02-28 05:36:00,
2013-02-27 23:38:00,30.0,26.3,29.77,WNW,302,7.8,16.1,86,0.00,CLR,,0.08,WeatherDisplay:10.37,2013-02-28 05:38:00,
2013-02-27 23:41:00,29.9,26.2,29.77,NNE,13,9.6,11.5,86,0.00,CLR,,0.08,WeatherDisplay:10.37,2013-02-28 05:41:00,
2013-02-27 23:42:00,30.0,26.3,29.77,NNE,14,9.1,15.0,86,0.00,CLR,,0.08,WeatherDisplay:10.37,2013-02-28 05:42:00,
2013-02-27 23:43:00,30.0,26.3,29.77,NNW,342,5.2,11.5,86,0.00,CLR,,0.08,WeatherDisplay:10.37,2013-02-28 05:43:00,
2013-02-27 23:46:00,29.9,26.2,29.78,North,353,7.6,11.5,86,0.00,CLR,,0.08,WeatherDisplay:10.37,2013-02-28 05:46:00,
2013-02-27 23:47:00,29.9,26.2,29.77,NNE,14,8.6,16.1,86,0.00,CLR,,0.08,WeatherDisplay:10.37,2013-02-28 05:47:00,
2013-02-27 23:48:00,30.0,26.3,29.78,NW,309,6.9,10.4,86,0.00,CLR,,0.08,WeatherDisplay:10.37,2013-02-28 05:48:00,
2013-02-27 23:51:00,30.0,26.3,29.77,North,359,0.6,7.0,86,0.00,CLR,,0.08,WeatherDisplay:10.37,2013-02-28 05:51:00,
2013-02-27 23:52:00,29.9,26.2,29.77,North,10,3.0,6.7,86,0.00,CLR,,0.08,WeatherDisplay:10.37,2013-02-28 05:52:00,
2013-02-27 23:53:00,30.0,26.3,29.78,NE,54,5.3,11.5,86,0.00,CLR,,0.08,WeatherDisplay:10.37,2013-02-28 05:53:00,
2013-02-27 23:56:00,29.9,26.2,29.78,NNE,16,6.4,9.2,86,0.00,CLR,,0.08,WeatherDisplay:10.37,2013-02-28 05:56:00,
2013-02-27 23:57:00,30.0,26.3,29.78,North,360,5.6,9.2,86,0.00,CLR,,0.08,WeatherDisplay:10.37,2013-02-28 05:57:00,
2013-02-27 23:58:00,30.0,26.3,29.78,WNW,282,5.7,9.2,86,0.00,CLR,,0.08,WeatherDisplay:10.37,2013-02-28 05:58:00,